<?xml version="1.0" encoding="UTF-8" standalone="no" ?>
<gpx xmlns="http://www.topografix.com/GPX/1/1" xmlns:xsi="http://www.w3.org/2001/XMLSchema-instance" xsi:schemaLocation="http://www.topografix.com/GPX/1/1 http://www.topografix.com/GPX/1/1/gpx.xsd" version="1.1" creator="VisuGPX - https://www.visugpx.com">
  <metadata>
    <name>VTT les 5 clochers Aude</name>
    <desc><![CDATA[VTT les 5 clochers Aude]]></desc>
  </metadata>
  <trk>
    <name><![CDATA[ACTIVE LOG085159]]></name>
    <trkseg>
      <trkpt lat="43.23601" lon="3.10659">
        <ele>17.171</ele>
        <time>2010-11-21T07:51:57Z</time>
      </trkpt>
      <trkpt lat="43.23603" lon="3.10657">
        <ele>19.857</ele>
        <time>2010-11-21T07:52:47Z</time>
      </trkpt>
      <trkpt lat="43.23602" lon="3.10656">
        <ele>19.335</ele>
        <time>2010-11-21T07:53:08Z</time>
      </trkpt>
      <trkpt lat="43.23605" lon="3.10652">
        <ele>18.347</ele>
        <time>2010-11-21T07:53:11Z</time>
      </trkpt>
      <trkpt lat="43.23637" lon="3.10662">
        <ele>15.872</ele>
        <time>2010-11-21T07:53:23Z</time>
      </trkpt>
      <trkpt lat="43.23678" lon="3.10704">
        <ele>15.835</ele>
        <time>2010-11-21T07:53:37Z</time>
      </trkpt>
      <trkpt lat="43.23706" lon="3.10736">
        <ele>13.998</ele>
        <time>2010-11-21T07:53:50Z</time>
      </trkpt>
      <trkpt lat="43.23716" lon="3.10806">
        <ele>16.637</ele>
        <time>2010-11-21T07:54:06Z</time>
      </trkpt>
      <trkpt lat="43.23735" lon="3.10884">
        <ele>14.319</ele>
        <time>2010-11-21T07:54:22Z</time>
      </trkpt>
      <trkpt lat="43.23769" lon="3.10981">
        <ele>13.387</ele>
        <time>2010-11-21T07:54:37Z</time>
      </trkpt>
      <trkpt lat="43.23814" lon="3.11073">
        <ele>13.446</ele>
        <time>2010-11-21T07:54:54Z</time>
      </trkpt>
      <trkpt lat="43.23843" lon="3.11132">
        <ele>12.783</ele>
        <time>2010-11-21T07:55:08Z</time>
      </trkpt>
      <trkpt lat="43.2385" lon="3.11145">
        <ele>11.565</ele>
        <time>2010-11-21T07:55:13Z</time>
      </trkpt>
      <trkpt lat="43.23867" lon="3.11149">
        <ele>11.53</ele>
        <time>2010-11-21T07:55:20Z</time>
      </trkpt>
      <trkpt lat="43.23867" lon="3.11149">
        <ele>9.813</ele>
        <time>2010-11-21T07:55:37Z</time>
      </trkpt>
      <trkpt lat="43.23867" lon="3.11149">
        <ele>9.976</ele>
        <time>2010-11-21T07:55:47Z</time>
      </trkpt>
      <trkpt lat="43.23867" lon="3.11149">
        <ele>9.679</ele>
        <time>2010-11-21T07:55:54Z</time>
      </trkpt>
      <trkpt lat="43.23867" lon="3.11149">
        <ele>9.484</ele>
        <time>2010-11-21T07:56:00Z</time>
      </trkpt>
      <trkpt lat="43.23867" lon="3.11149">
        <ele>9.541</ele>
        <time>2010-11-21T07:56:12Z</time>
      </trkpt>
      <trkpt lat="43.23867" lon="3.11149">
        <ele>9.301</ele>
        <time>2010-11-21T07:56:42Z</time>
      </trkpt>
      <trkpt lat="43.23867" lon="3.11149">
        <ele>8.669</ele>
        <time>2010-11-21T07:56:50Z</time>
      </trkpt>
      <trkpt lat="43.23866" lon="3.11111">
        <ele>10.246</ele>
        <time>2010-11-21T07:57:04Z</time>
      </trkpt>
      <trkpt lat="43.23866" lon="3.11111">
        <ele>11.131</ele>
        <time>2010-11-21T07:57:20Z</time>
      </trkpt>
      <trkpt lat="43.23866" lon="3.11111">
        <ele>11.342</ele>
        <time>2010-11-21T07:57:25Z</time>
      </trkpt>
      <trkpt lat="43.23866" lon="3.11115">
        <ele>10.852</ele>
        <time>2010-11-21T07:57:29Z</time>
      </trkpt>
      <trkpt lat="43.23867" lon="3.11108">
        <ele>10.527</ele>
        <time>2010-11-21T07:57:42Z</time>
      </trkpt>
      <trkpt lat="43.23867" lon="3.11108">
        <ele>10.248</ele>
        <time>2010-11-21T08:01:28Z</time>
      </trkpt>
      <trkpt lat="43.23867" lon="3.11108">
        <ele>9.98</ele>
        <time>2010-11-21T08:01:30Z</time>
      </trkpt>
      <trkpt lat="43.23867" lon="3.11108">
        <ele>9.468</ele>
        <time>2010-11-21T08:01:48Z</time>
      </trkpt>
      <trkpt lat="43.23867" lon="3.11108">
        <ele>9.467</ele>
        <time>2010-11-21T08:01:51Z</time>
      </trkpt>
      <trkpt lat="43.23873" lon="3.11088">
        <ele>9.421</ele>
        <time>2010-11-21T08:01:56Z</time>
      </trkpt>
      <trkpt lat="43.23877" lon="3.11079">
        <ele>9.465</ele>
        <time>2010-11-21T08:02:01Z</time>
      </trkpt>
      <trkpt lat="43.23885" lon="3.11063">
        <ele>9.02</ele>
        <time>2010-11-21T08:02:18Z</time>
      </trkpt>
      <trkpt lat="43.23899" lon="3.11037">
        <ele>8.166</ele>
        <time>2010-11-21T08:02:36Z</time>
      </trkpt>
      <trkpt lat="43.23901" lon="3.11034">
        <ele>8.258</ele>
        <time>2010-11-21T08:02:37Z</time>
      </trkpt>
      <trkpt lat="43.23904" lon="3.11029">
        <ele>8.493</ele>
        <time>2010-11-21T08:02:40Z</time>
      </trkpt>
      <trkpt lat="43.23922" lon="3.10996">
        <ele>7.717</ele>
        <time>2010-11-21T08:02:54Z</time>
      </trkpt>
      <trkpt lat="43.23938" lon="3.10969">
        <ele>7.6</ele>
        <time>2010-11-21T08:03:04Z</time>
      </trkpt>
      <trkpt lat="43.23957" lon="3.10942">
        <ele>8.002</ele>
        <time>2010-11-21T08:03:14Z</time>
      </trkpt>
      <trkpt lat="43.2396" lon="3.10938">
        <ele>8.2</ele>
        <time>2010-11-21T08:03:15Z</time>
      </trkpt>
      <trkpt lat="43.24002" lon="3.10876">
        <ele>7.448</ele>
        <time>2010-11-21T08:03:28Z</time>
      </trkpt>
      <trkpt lat="43.24018" lon="3.10877">
        <ele>6.952</ele>
        <time>2010-11-21T08:03:32Z</time>
      </trkpt>
      <trkpt lat="43.24038" lon="3.10899">
        <ele>6.058</ele>
        <time>2010-11-21T08:03:37Z</time>
      </trkpt>
      <trkpt lat="43.24073" lon="3.10965">
        <ele>3.712</ele>
        <time>2010-11-21T08:03:49Z</time>
      </trkpt>
      <trkpt lat="43.24092" lon="3.11004">
        <ele>3.028</ele>
        <time>2010-11-21T08:04:00Z</time>
      </trkpt>
      <trkpt lat="43.24104" lon="3.11027">
        <ele>2.571</ele>
        <time>2010-11-21T08:04:07Z</time>
      </trkpt>
      <trkpt lat="43.24137" lon="3.11075">
        <ele>2.989</ele>
        <time>2010-11-21T08:04:19Z</time>
      </trkpt>
      <trkpt lat="43.24158" lon="3.11124">
        <ele>-0.194</ele>
        <time>2010-11-21T08:04:31Z</time>
      </trkpt>
      <trkpt lat="43.24178" lon="3.11213">
        <ele>0.019</ele>
        <time>2010-11-21T08:04:55Z</time>
      </trkpt>
      <trkpt lat="43.24194" lon="3.11279">
        <ele>6.491</ele>
        <time>2010-11-21T08:05:13Z</time>
      </trkpt>
      <trkpt lat="43.24196" lon="3.11283">
        <ele>7.052</ele>
        <time>2010-11-21T08:05:14Z</time>
      </trkpt>
      <trkpt lat="43.24187" lon="3.11315">
        <ele>8.246</ele>
        <time>2010-11-21T08:05:19Z</time>
      </trkpt>
      <trkpt lat="43.24138" lon="3.11364">
        <ele>7.493</ele>
        <time>2010-11-21T08:05:36Z</time>
      </trkpt>
      <trkpt lat="43.24097" lon="3.11409">
        <ele>8.725</ele>
        <time>2010-11-21T08:05:54Z</time>
      </trkpt>
      <trkpt lat="43.24065" lon="3.11465">
        <ele>13.031</ele>
        <time>2010-11-21T08:06:12Z</time>
      </trkpt>
      <trkpt lat="43.24039" lon="3.11529">
        <ele>16.242</ele>
        <time>2010-11-21T08:06:26Z</time>
      </trkpt>
      <trkpt lat="43.24035" lon="3.11557">
        <ele>12.37</ele>
        <time>2010-11-21T08:06:31Z</time>
      </trkpt>
      <trkpt lat="43.24034" lon="3.11561">
        <ele>12.992</ele>
        <time>2010-11-21T08:06:33Z</time>
      </trkpt>
      <trkpt lat="43.24027" lon="3.11592">
        <ele>13.598</ele>
        <time>2010-11-21T08:06:37Z</time>
      </trkpt>
      <trkpt lat="43.24023" lon="3.11608">
        <ele>13.968</ele>
        <time>2010-11-21T08:06:40Z</time>
      </trkpt>
      <trkpt lat="43.23979" lon="3.11668">
        <ele>17.518</ele>
        <time>2010-11-21T08:06:56Z</time>
      </trkpt>
      <trkpt lat="43.23974" lon="3.11691">
        <ele>26.024</ele>
        <time>2010-11-21T08:07:05Z</time>
      </trkpt>
      <trkpt lat="43.23975" lon="3.11692">
        <ele>27.603</ele>
        <time>2010-11-21T08:07:06Z</time>
      </trkpt>
      <trkpt lat="43.23986" lon="3.11698">
        <ele>32.531</ele>
        <time>2010-11-21T08:07:11Z</time>
      </trkpt>
      <trkpt lat="43.23991" lon="3.11701">
        <ele>33.79</ele>
        <time>2010-11-21T08:07:13Z</time>
      </trkpt>
      <trkpt lat="43.23992" lon="3.11702">
        <ele>36.657</ele>
        <time>2010-11-21T08:07:15Z</time>
      </trkpt>
      <trkpt lat="43.24025" lon="3.11723">
        <ele>37.81</ele>
        <time>2010-11-21T08:07:28Z</time>
      </trkpt>
      <trkpt lat="43.24053" lon="3.1174">
        <ele>23.829</ele>
        <time>2010-11-21T08:07:36Z</time>
      </trkpt>
      <trkpt lat="43.24041" lon="3.11785">
        <ele>25.997</ele>
        <time>2010-11-21T08:07:50Z</time>
      </trkpt>
      <trkpt lat="43.24026" lon="3.11827">
        <ele>30.289</ele>
        <time>2010-11-21T08:08:04Z</time>
      </trkpt>
      <trkpt lat="43.24016" lon="3.11857">
        <ele>31.488</ele>
        <time>2010-11-21T08:08:12Z</time>
      </trkpt>
      <trkpt lat="43.23997" lon="3.11929">
        <ele>29.805</ele>
        <time>2010-11-21T08:08:26Z</time>
      </trkpt>
      <trkpt lat="43.2401" lon="3.11941">
        <ele>30.992</ele>
        <time>2010-11-21T08:08:32Z</time>
      </trkpt>
      <trkpt lat="43.24043" lon="3.11956">
        <ele>33.132</ele>
        <time>2010-11-21T08:08:45Z</time>
      </trkpt>
      <trkpt lat="43.24089" lon="3.11987">
        <ele>17.703</ele>
        <time>2010-11-21T08:08:56Z</time>
      </trkpt>
      <trkpt lat="43.24112" lon="3.11999">
        <ele>17.605</ele>
        <time>2010-11-21T08:09:02Z</time>
      </trkpt>
      <trkpt lat="43.24148" lon="3.1201">
        <ele>20.25</ele>
        <time>2010-11-21T08:09:11Z</time>
      </trkpt>
      <trkpt lat="43.24164" lon="3.12013">
        <ele>20.292</ele>
        <time>2010-11-21T08:09:15Z</time>
      </trkpt>
      <trkpt lat="43.24186" lon="3.12018">
        <ele>18.583</ele>
        <time>2010-11-21T08:09:20Z</time>
      </trkpt>
      <trkpt lat="43.2422" lon="3.12022">
        <ele>16.427</ele>
        <time>2010-11-21T08:09:27Z</time>
      </trkpt>
      <trkpt lat="43.24239" lon="3.12025">
        <ele>15.583</ele>
        <time>2010-11-21T08:09:31Z</time>
      </trkpt>
      <trkpt lat="43.24266" lon="3.12029">
        <ele>15.114</ele>
        <time>2010-11-21T08:09:39Z</time>
      </trkpt>
      <trkpt lat="43.2431" lon="3.12046">
        <ele>12.916</ele>
        <time>2010-11-21T08:09:47Z</time>
      </trkpt>
      <trkpt lat="43.24328" lon="3.12055">
        <ele>12.591</ele>
        <time>2010-11-21T08:09:51Z</time>
      </trkpt>
      <trkpt lat="43.24343" lon="3.12062">
        <ele>11.227</ele>
        <time>2010-11-21T08:09:54Z</time>
      </trkpt>
      <trkpt lat="43.24365" lon="3.12079">
        <ele>8.485</ele>
        <time>2010-11-21T08:09:59Z</time>
      </trkpt>
      <trkpt lat="43.24412" lon="3.12139">
        <ele>8.515</ele>
        <time>2010-11-21T08:10:10Z</time>
      </trkpt>
      <trkpt lat="43.2443" lon="3.12174">
        <ele>7.552</ele>
        <time>2010-11-21T08:10:16Z</time>
      </trkpt>
      <trkpt lat="43.24454" lon="3.1222">
        <ele>5.285</ele>
        <time>2010-11-21T08:10:23Z</time>
      </trkpt>
      <trkpt lat="43.24514" lon="3.12265">
        <ele>2.627</ele>
        <time>2010-11-21T08:10:38Z</time>
      </trkpt>
      <trkpt lat="43.24544" lon="3.12278">
        <ele>2.523</ele>
        <time>2010-11-21T08:10:45Z</time>
      </trkpt>
      <trkpt lat="43.24578" lon="3.12298">
        <ele>2.155</ele>
        <time>2010-11-21T08:10:52Z</time>
      </trkpt>
      <trkpt lat="43.24616" lon="3.12336">
        <ele>2.573</ele>
        <time>2010-11-21T08:11:02Z</time>
      </trkpt>
      <trkpt lat="43.24648" lon="3.12395">
        <ele>5.538</ele>
        <time>2010-11-21T08:11:15Z</time>
      </trkpt>
      <trkpt lat="43.24659" lon="3.12486">
        <ele>6.766</ele>
        <time>2010-11-21T08:11:31Z</time>
      </trkpt>
      <trkpt lat="43.24662" lon="3.12516">
        <ele>6.301</ele>
        <time>2010-11-21T08:11:36Z</time>
      </trkpt>
      <trkpt lat="43.24665" lon="3.12539">
        <ele>6.33</ele>
        <time>2010-11-21T08:11:40Z</time>
      </trkpt>
      <trkpt lat="43.24659" lon="3.12565">
        <ele>7.43</ele>
        <time>2010-11-21T08:11:44Z</time>
      </trkpt>
      <trkpt lat="43.24638" lon="3.12648">
        <ele>2.679</ele>
        <time>2010-11-21T08:12:01Z</time>
      </trkpt>
      <trkpt lat="43.24635" lon="3.12702">
        <ele>0.417</ele>
        <time>2010-11-21T08:12:11Z</time>
      </trkpt>
      <trkpt lat="43.24635" lon="3.12812">
        <ele>-1.252</ele>
        <time>2010-11-21T08:12:27Z</time>
      </trkpt>
      <trkpt lat="43.24629" lon="3.12927">
        <ele>-0.457</ele>
        <time>2010-11-21T08:12:43Z</time>
      </trkpt>
      <trkpt lat="43.24617" lon="3.12957">
        <ele>-1.125</ele>
        <time>2010-11-21T08:12:48Z</time>
      </trkpt>
      <trkpt lat="43.24562" lon="3.13043">
        <ele>-0.297</ele>
        <time>2010-11-21T08:13:05Z</time>
      </trkpt>
      <trkpt lat="43.24556" lon="3.13068">
        <ele>-0.368</ele>
        <time>2010-11-21T08:13:09Z</time>
      </trkpt>
      <trkpt lat="43.24518" lon="3.13175">
        <ele>1.662</ele>
        <time>2010-11-21T08:13:26Z</time>
      </trkpt>
      <trkpt lat="43.245" lon="3.13209">
        <ele>2.922</ele>
        <time>2010-11-21T08:13:32Z</time>
      </trkpt>
      <trkpt lat="43.24485" lon="3.13276">
        <ele>2.649</ele>
        <time>2010-11-21T08:13:42Z</time>
      </trkpt>
      <trkpt lat="43.24469" lon="3.13362">
        <ele>3.589</ele>
        <time>2010-11-21T08:13:55Z</time>
      </trkpt>
      <trkpt lat="43.24465" lon="3.13383">
        <ele>2.217</ele>
        <time>2010-11-21T08:13:58Z</time>
      </trkpt>
      <trkpt lat="43.24457" lon="3.13436">
        <ele>3.261</ele>
        <time>2010-11-21T08:14:06Z</time>
      </trkpt>
      <trkpt lat="43.24456" lon="3.13464">
        <ele>3.262</ele>
        <time>2010-11-21T08:14:10Z</time>
      </trkpt>
      <trkpt lat="43.24466" lon="3.1355">
        <ele>2.639</ele>
        <time>2010-11-21T08:14:23Z</time>
      </trkpt>
      <trkpt lat="43.24468" lon="3.13582">
        <ele>3.404</ele>
        <time>2010-11-21T08:14:28Z</time>
      </trkpt>
      <trkpt lat="43.24468" lon="3.13764">
        <ele>2.747</ele>
        <time>2010-11-21T08:14:53Z</time>
      </trkpt>
      <trkpt lat="43.24467" lon="3.13828">
        <ele>3.906</ele>
        <time>2010-11-21T08:15:02Z</time>
      </trkpt>
      <trkpt lat="43.24482" lon="3.13843">
        <ele>3.911</ele>
        <time>2010-11-21T08:15:07Z</time>
      </trkpt>
      <trkpt lat="43.24596" lon="3.13855">
        <ele>1.838</ele>
        <time>2010-11-21T08:15:29Z</time>
      </trkpt>
      <trkpt lat="43.24684" lon="3.13868">
        <ele>0.779</ele>
        <time>2010-11-21T08:15:46Z</time>
      </trkpt>
      <trkpt lat="43.24691" lon="3.13895">
        <ele>1.197</ele>
        <time>2010-11-21T08:15:52Z</time>
      </trkpt>
      <trkpt lat="43.24679" lon="3.14082">
        <ele>2.806</ele>
        <time>2010-11-21T08:16:18Z</time>
      </trkpt>
      <trkpt lat="43.24675" lon="3.14266">
        <ele>3.273</ele>
        <time>2010-11-21T08:16:43Z</time>
      </trkpt>
      <trkpt lat="43.24686" lon="3.14386">
        <ele>3.089</ele>
        <time>2010-11-21T08:17:00Z</time>
      </trkpt>
      <trkpt lat="43.24677" lon="3.14468">
        <ele>5.42</ele>
        <time>2010-11-21T08:17:15Z</time>
      </trkpt>
      <trkpt lat="43.24669" lon="3.1455">
        <ele>8.124</ele>
        <time>2010-11-21T08:17:31Z</time>
      </trkpt>
      <trkpt lat="43.24651" lon="3.14729">
        <ele>2.637</ele>
        <time>2010-11-21T08:17:55Z</time>
      </trkpt>
      <trkpt lat="43.24627" lon="3.14887">
        <ele>3.447</ele>
        <time>2010-11-21T08:18:15Z</time>
      </trkpt>
      <trkpt lat="43.24575" lon="3.14997">
        <ele>3.098</ele>
        <time>2010-11-21T08:18:31Z</time>
      </trkpt>
      <trkpt lat="43.24552" lon="3.15022">
        <ele>2.768</ele>
        <time>2010-11-21T08:18:36Z</time>
      </trkpt>
      <trkpt lat="43.24529" lon="3.15024">
        <ele>2.782</ele>
        <time>2010-11-21T08:18:41Z</time>
      </trkpt>
      <trkpt lat="43.24518" lon="3.15018">
        <ele>3.007</ele>
        <time>2010-11-21T08:18:43Z</time>
      </trkpt>
      <trkpt lat="43.24501" lon="3.1501">
        <ele>4.017</ele>
        <time>2010-11-21T08:18:46Z</time>
      </trkpt>
      <trkpt lat="43.24418" lon="3.14919">
        <ele>4.476</ele>
        <time>2010-11-21T08:19:04Z</time>
      </trkpt>
      <trkpt lat="43.24302" lon="3.14792">
        <ele>3.801</ele>
        <time>2010-11-21T08:19:29Z</time>
      </trkpt>
      <trkpt lat="43.24213" lon="3.14691">
        <ele>3.847</ele>
        <time>2010-11-21T08:19:49Z</time>
      </trkpt>
      <trkpt lat="43.24142" lon="3.14608">
        <ele>3.231</ele>
        <time>2010-11-21T08:20:06Z</time>
      </trkpt>
      <trkpt lat="43.24085" lon="3.14552">
        <ele>7.909</ele>
        <time>2010-11-21T08:20:24Z</time>
      </trkpt>
      <trkpt lat="43.24032" lon="3.14494">
        <ele>15.437</ele>
        <time>2010-11-21T08:20:48Z</time>
      </trkpt>
      <trkpt lat="43.23983" lon="3.14433">
        <ele>22.449</ele>
        <time>2010-11-21T08:21:12Z</time>
      </trkpt>
      <trkpt lat="43.23914" lon="3.14342">
        <ele>27.58</ele>
        <time>2010-11-21T08:21:41Z</time>
      </trkpt>
      <trkpt lat="43.2385" lon="3.14254">
        <ele>28.36</ele>
        <time>2010-11-21T08:22:02Z</time>
      </trkpt>
      <trkpt lat="43.23774" lon="3.14149">
        <ele>27.843</ele>
        <time>2010-11-21T08:22:23Z</time>
      </trkpt>
      <trkpt lat="43.23687" lon="3.14015">
        <ele>28.961</ele>
        <time>2010-11-21T08:22:44Z</time>
      </trkpt>
      <trkpt lat="43.23631" lon="3.13911">
        <ele>33.733</ele>
        <time>2010-11-21T08:23:04Z</time>
      </trkpt>
      <trkpt lat="43.23577" lon="3.13808">
        <ele>31.456</ele>
        <time>2010-11-21T08:23:22Z</time>
      </trkpt>
      <trkpt lat="43.23513" lon="3.13689">
        <ele>26.352</ele>
        <time>2010-11-21T08:23:38Z</time>
      </trkpt>
      <trkpt lat="43.23476" lon="3.13605">
        <ele>24.633</ele>
        <time>2010-11-21T08:23:50Z</time>
      </trkpt>
      <trkpt lat="43.23463" lon="3.13575">
        <ele>22.89</ele>
        <time>2010-11-21T08:23:57Z</time>
      </trkpt>
      <trkpt lat="43.23467" lon="3.13566">
        <ele>22.221</ele>
        <time>2010-11-21T08:24:00Z</time>
      </trkpt>
      <trkpt lat="43.23454" lon="3.13565">
        <ele>20.414</ele>
        <time>2010-11-21T08:24:09Z</time>
      </trkpt>
      <trkpt lat="43.23393" lon="3.13595">
        <ele>20.768</ele>
        <time>2010-11-21T08:24:14Z</time>
      </trkpt>
      <trkpt lat="43.23378" lon="3.13587">
        <ele>21.561</ele>
        <time>2010-11-21T08:24:20Z</time>
      </trkpt>
      <trkpt lat="43.23372" lon="3.13574">
        <ele>21.561</ele>
        <time>2010-11-21T08:24:22Z</time>
      </trkpt>
      <trkpt lat="43.23358" lon="3.13544">
        <ele>20.834</ele>
        <time>2010-11-21T08:24:27Z</time>
      </trkpt>
      <trkpt lat="43.23321" lon="3.13518">
        <ele>20.388</ele>
        <time>2010-11-21T08:24:35Z</time>
      </trkpt>
      <trkpt lat="43.23305" lon="3.13515">
        <ele>19.834</ele>
        <time>2010-11-21T08:24:38Z</time>
      </trkpt>
      <trkpt lat="43.23234" lon="3.13542">
        <ele>21.226</ele>
        <time>2010-11-21T08:24:51Z</time>
      </trkpt>
      <trkpt lat="43.23207" lon="3.13556">
        <ele>21.919</ele>
        <time>2010-11-21T08:24:56Z</time>
      </trkpt>
      <trkpt lat="43.23187" lon="3.13518">
        <ele>23.426</ele>
        <time>2010-11-21T08:25:04Z</time>
      </trkpt>
      <trkpt lat="43.23183" lon="3.13498">
        <ele>23.088</ele>
        <time>2010-11-21T08:25:07Z</time>
      </trkpt>
      <trkpt lat="43.2318" lon="3.13484">
        <ele>23.099</ele>
        <time>2010-11-21T08:25:09Z</time>
      </trkpt>
      <trkpt lat="43.23157" lon="3.13382">
        <ele>22.165</ele>
        <time>2010-11-21T08:25:25Z</time>
      </trkpt>
      <trkpt lat="43.23152" lon="3.13364">
        <ele>22.397</ele>
        <time>2010-11-21T08:25:28Z</time>
      </trkpt>
      <trkpt lat="43.23146" lon="3.13333">
        <ele>22.258</ele>
        <time>2010-11-21T08:25:33Z</time>
      </trkpt>
      <trkpt lat="43.23142" lon="3.13315">
        <ele>22.281</ele>
        <time>2010-11-21T08:25:36Z</time>
      </trkpt>
      <trkpt lat="43.23135" lon="3.13275">
        <ele>22.85</ele>
        <time>2010-11-21T08:25:45Z</time>
      </trkpt>
      <trkpt lat="43.23135" lon="3.13275">
        <ele>23.283</ele>
        <time>2010-11-21T08:25:48Z</time>
      </trkpt>
      <trkpt lat="43.23134" lon="3.13271">
        <ele>23.731</ele>
        <time>2010-11-21T08:25:50Z</time>
      </trkpt>
      <trkpt lat="43.23133" lon="3.13261">
        <ele>23.241</ele>
        <time>2010-11-21T08:26:01Z</time>
      </trkpt>
      <trkpt lat="43.23131" lon="3.13247">
        <ele>24.474</ele>
        <time>2010-11-21T08:26:13Z</time>
      </trkpt>
      <trkpt lat="43.2313" lon="3.13241">
        <ele>24.414</ele>
        <time>2010-11-21T08:26:14Z</time>
      </trkpt>
      <trkpt lat="43.2313" lon="3.13241">
        <ele>23.902</ele>
        <time>2010-11-21T08:26:25Z</time>
      </trkpt>
      <trkpt lat="43.2313" lon="3.13241">
        <ele>23.541</ele>
        <time>2010-11-21T08:26:28Z</time>
      </trkpt>
      <trkpt lat="43.23129" lon="3.13235">
        <ele>24.08</ele>
        <time>2010-11-21T08:26:38Z</time>
      </trkpt>
      <trkpt lat="43.23129" lon="3.13235">
        <ele>18.647</ele>
        <time>2010-11-21T08:26:49Z</time>
      </trkpt>
      <trkpt lat="43.23129" lon="3.13235">
        <ele>18.264</ele>
        <time>2010-11-21T08:26:55Z</time>
      </trkpt>
      <trkpt lat="43.23115" lon="3.13241">
        <ele>21.194</ele>
        <time>2010-11-21T08:27:02Z</time>
      </trkpt>
      <trkpt lat="43.23098" lon="3.13268">
        <ele>24.616</ele>
        <time>2010-11-21T08:27:11Z</time>
      </trkpt>
      <trkpt lat="43.23053" lon="3.1334">
        <ele>29.979</ele>
        <time>2010-11-21T08:27:26Z</time>
      </trkpt>
      <trkpt lat="43.23052" lon="3.13345">
        <ele>30.762</ele>
        <time>2010-11-21T08:27:28Z</time>
      </trkpt>
      <trkpt lat="43.23031" lon="3.13342">
        <ele>32.287</ele>
        <time>2010-11-21T08:27:32Z</time>
      </trkpt>
      <trkpt lat="43.23008" lon="3.13322">
        <ele>33.579</ele>
        <time>2010-11-21T08:27:38Z</time>
      </trkpt>
      <trkpt lat="43.22971" lon="3.13312">
        <ele>32.408</ele>
        <time>2010-11-21T08:27:46Z</time>
      </trkpt>
      <trkpt lat="43.22955" lon="3.13319">
        <ele>33.24</ele>
        <time>2010-11-21T08:27:49Z</time>
      </trkpt>
      <trkpt lat="43.2294" lon="3.13325">
        <ele>33.664</ele>
        <time>2010-11-21T08:27:52Z</time>
      </trkpt>
      <trkpt lat="43.22923" lon="3.13325">
        <ele>34.323</ele>
        <time>2010-11-21T08:27:56Z</time>
      </trkpt>
      <trkpt lat="43.22912" lon="3.1335">
        <ele>35.762</ele>
        <time>2010-11-21T08:28:00Z</time>
      </trkpt>
      <trkpt lat="43.22886" lon="3.13404">
        <ele>35.288</ele>
        <time>2010-11-21T08:28:11Z</time>
      </trkpt>
      <trkpt lat="43.22864" lon="3.13444">
        <ele>34.407</ele>
        <time>2010-11-21T08:28:19Z</time>
      </trkpt>
      <trkpt lat="43.22846" lon="3.13446">
        <ele>36.215</ele>
        <time>2010-11-21T08:28:24Z</time>
      </trkpt>
      <trkpt lat="43.22781" lon="3.13409">
        <ele>35.575</ele>
        <time>2010-11-21T08:28:38Z</time>
      </trkpt>
      <trkpt lat="43.22711" lon="3.13361">
        <ele>32.742</ele>
        <time>2010-11-21T08:28:52Z</time>
      </trkpt>
      <trkpt lat="43.22672" lon="3.13333">
        <ele>33.516</ele>
        <time>2010-11-21T08:29:00Z</time>
      </trkpt>
      <trkpt lat="43.22657" lon="3.13323">
        <ele>33.398</ele>
        <time>2010-11-21T08:29:03Z</time>
      </trkpt>
      <trkpt lat="43.22648" lon="3.13316">
        <ele>34.361</ele>
        <time>2010-11-21T08:29:06Z</time>
      </trkpt>
      <trkpt lat="43.22621" lon="3.13297">
        <ele>34.136</ele>
        <time>2010-11-21T08:29:11Z</time>
      </trkpt>
      <trkpt lat="43.22529" lon="3.13232">
        <ele>35.34</ele>
        <time>2010-11-21T08:29:30Z</time>
      </trkpt>
      <trkpt lat="43.22502" lon="3.13213">
        <ele>35.754</ele>
        <time>2010-11-21T08:29:38Z</time>
      </trkpt>
      <trkpt lat="43.22446" lon="3.13148">
        <ele>36.79</ele>
        <time>2010-11-21T08:29:53Z</time>
      </trkpt>
      <trkpt lat="43.22422" lon="3.13117">
        <ele>36.132</ele>
        <time>2010-11-21T08:30:00Z</time>
      </trkpt>
      <trkpt lat="43.22357" lon="3.13034">
        <ele>35.996</ele>
        <time>2010-11-21T08:30:14Z</time>
      </trkpt>
      <trkpt lat="43.22344" lon="3.13002">
        <ele>35.796</ele>
        <time>2010-11-21T08:30:18Z</time>
      </trkpt>
      <trkpt lat="43.22319" lon="3.12917">
        <ele>36.375</ele>
        <time>2010-11-21T08:30:28Z</time>
      </trkpt>
      <trkpt lat="43.22279" lon="3.12865">
        <ele>37.27</ele>
        <time>2010-11-21T08:30:37Z</time>
      </trkpt>
      <trkpt lat="43.22216" lon="3.12788">
        <ele>39.402</ele>
        <time>2010-11-21T08:30:52Z</time>
      </trkpt>
      <trkpt lat="43.22208" lon="3.12778">
        <ele>39.616</ele>
        <time>2010-11-21T08:30:54Z</time>
      </trkpt>
      <trkpt lat="43.22143" lon="3.12672">
        <ele>38.298</ele>
        <time>2010-11-21T08:31:10Z</time>
      </trkpt>
      <trkpt lat="43.22092" lon="3.12546">
        <ele>38.521</ele>
        <time>2010-11-21T08:31:25Z</time>
      </trkpt>
      <trkpt lat="43.22059" lon="3.12428">
        <ele>38.575</ele>
        <time>2010-11-21T08:31:39Z</time>
      </trkpt>
      <trkpt lat="43.22035" lon="3.12364">
        <ele>38.301</ele>
        <time>2010-11-21T08:31:47Z</time>
      </trkpt>
      <trkpt lat="43.22018" lon="3.12337">
        <ele>38.106</ele>
        <time>2010-11-21T08:31:51Z</time>
      </trkpt>
      <trkpt lat="43.21897" lon="3.12259">
        <ele>37.859</ele>
        <time>2010-11-21T08:32:13Z</time>
      </trkpt>
      <trkpt lat="43.21787" lon="3.12193">
        <ele>37.653</ele>
        <time>2010-11-21T08:32:32Z</time>
      </trkpt>
      <trkpt lat="43.2169" lon="3.12138">
        <ele>38.454</ele>
        <time>2010-11-21T08:32:51Z</time>
      </trkpt>
      <trkpt lat="43.21667" lon="3.12133">
        <ele>38.187</ele>
        <time>2010-11-21T08:32:55Z</time>
      </trkpt>
      <trkpt lat="43.21651" lon="3.12119">
        <ele>37.633</ele>
        <time>2010-11-21T08:32:59Z</time>
      </trkpt>
      <trkpt lat="43.2164" lon="3.12105">
        <ele>37.122</ele>
        <time>2010-11-21T08:33:02Z</time>
      </trkpt>
      <trkpt lat="43.21628" lon="3.1209">
        <ele>36.668</ele>
        <time>2010-11-21T08:33:05Z</time>
      </trkpt>
      <trkpt lat="43.21627" lon="3.12089">
        <ele>36.799</ele>
        <time>2010-11-21T08:33:08Z</time>
      </trkpt>
      <trkpt lat="43.21583" lon="3.1204">
        <ele>36.417</ele>
        <time>2010-11-21T08:33:15Z</time>
      </trkpt>
      <trkpt lat="43.21555" lon="3.12042">
        <ele>36.109</ele>
        <time>2010-11-21T08:33:20Z</time>
      </trkpt>
      <trkpt lat="43.21543" lon="3.12048">
        <ele>36.002</ele>
        <time>2010-11-21T08:33:22Z</time>
      </trkpt>
      <trkpt lat="43.21473" lon="3.12033">
        <ele>35.966</ele>
        <time>2010-11-21T08:33:33Z</time>
      </trkpt>
      <trkpt lat="43.21364" lon="3.12012">
        <ele>37.395</ele>
        <time>2010-11-21T08:33:51Z</time>
      </trkpt>
      <trkpt lat="43.2125" lon="3.11956">
        <ele>40.426</ele>
        <time>2010-11-21T08:34:12Z</time>
      </trkpt>
      <trkpt lat="43.2121" lon="3.11933">
        <ele>42.373</ele>
        <time>2010-11-21T08:34:21Z</time>
      </trkpt>
      <trkpt lat="43.21201" lon="3.119">
        <ele>43.719</ele>
        <time>2010-11-21T08:34:27Z</time>
      </trkpt>
      <trkpt lat="43.21199" lon="3.11887">
        <ele>43.902</ele>
        <time>2010-11-21T08:34:29Z</time>
      </trkpt>
      <trkpt lat="43.21197" lon="3.11863">
        <ele>43.812</ele>
        <time>2010-11-21T08:34:33Z</time>
      </trkpt>
      <trkpt lat="43.21194" lon="3.11838">
        <ele>42.369</ele>
        <time>2010-11-21T08:34:37Z</time>
      </trkpt>
      <trkpt lat="43.21193" lon="3.11827">
        <ele>43.288</ele>
        <time>2010-11-21T08:34:39Z</time>
      </trkpt>
      <trkpt lat="43.21181" lon="3.11807">
        <ele>43.571</ele>
        <time>2010-11-21T08:34:44Z</time>
      </trkpt>
      <trkpt lat="43.21128" lon="3.11763">
        <ele>42.113</ele>
        <time>2010-11-21T08:34:55Z</time>
      </trkpt>
      <trkpt lat="43.21089" lon="3.11731">
        <ele>41.784</ele>
        <time>2010-11-21T08:35:03Z</time>
      </trkpt>
      <trkpt lat="43.21005" lon="3.11661">
        <ele>35.837</ele>
        <time>2010-11-21T08:35:15Z</time>
      </trkpt>
      <trkpt lat="43.20932" lon="3.11601">
        <ele>34.849</ele>
        <time>2010-11-21T08:35:25Z</time>
      </trkpt>
      <trkpt lat="43.20845" lon="3.11528">
        <ele>35.471</ele>
        <time>2010-11-21T08:35:39Z</time>
      </trkpt>
      <trkpt lat="43.20722" lon="3.11426">
        <ele>35.095</ele>
        <time>2010-11-21T08:36:00Z</time>
      </trkpt>
      <trkpt lat="43.20713" lon="3.1139">
        <ele>36.152</ele>
        <time>2010-11-21T08:36:06Z</time>
      </trkpt>
      <trkpt lat="43.20773" lon="3.11256">
        <ele>38.27</ele>
        <time>2010-11-21T08:36:28Z</time>
      </trkpt>
      <trkpt lat="43.20791" lon="3.11215">
        <ele>39.545</ele>
        <time>2010-11-21T08:36:36Z</time>
      </trkpt>
      <trkpt lat="43.20833" lon="3.11121">
        <ele>40.21</ele>
        <time>2010-11-21T08:36:53Z</time>
      </trkpt>
      <trkpt lat="43.20845" lon="3.11095">
        <ele>40.664</ele>
        <time>2010-11-21T08:36:58Z</time>
      </trkpt>
      <trkpt lat="43.20899" lon="3.10949">
        <ele>43.694</ele>
        <time>2010-11-21T08:37:25Z</time>
      </trkpt>
      <trkpt lat="43.20906" lon="3.10927">
        <ele>44.423</ele>
        <time>2010-11-21T08:37:29Z</time>
      </trkpt>
      <trkpt lat="43.20902" lon="3.10854">
        <ele>46.897</ele>
        <time>2010-11-21T08:37:42Z</time>
      </trkpt>
      <trkpt lat="43.20882" lon="3.10824">
        <ele>48.377</ele>
        <time>2010-11-21T08:37:49Z</time>
      </trkpt>
      <trkpt lat="43.20827" lon="3.10739">
        <ele>52.174</ele>
        <time>2010-11-21T08:38:08Z</time>
      </trkpt>
      <trkpt lat="43.20818" lon="3.10713">
        <ele>51.63</ele>
        <time>2010-11-21T08:38:13Z</time>
      </trkpt>
      <trkpt lat="43.208" lon="3.1056">
        <ele>55.474</ele>
        <time>2010-11-21T08:38:38Z</time>
      </trkpt>
      <trkpt lat="43.20816" lon="3.10459">
        <ele>60.631</ele>
        <time>2010-11-21T08:38:56Z</time>
      </trkpt>
      <trkpt lat="43.20837" lon="3.1035">
        <ele>61.038</ele>
        <time>2010-11-21T08:39:17Z</time>
      </trkpt>
      <trkpt lat="43.20838" lon="3.10345">
        <ele>61.003</ele>
        <time>2010-11-21T08:39:18Z</time>
      </trkpt>
      <trkpt lat="43.20829" lon="3.10304">
        <ele>61.813</ele>
        <time>2010-11-21T08:39:25Z</time>
      </trkpt>
      <trkpt lat="43.20817" lon="3.10284">
        <ele>61.942</ele>
        <time>2010-11-21T08:39:29Z</time>
      </trkpt>
      <trkpt lat="43.20757" lon="3.1024">
        <ele>64.462</ele>
        <time>2010-11-21T08:39:44Z</time>
      </trkpt>
      <trkpt lat="43.20722" lon="3.10209">
        <ele>68.584</ele>
        <time>2010-11-21T08:39:58Z</time>
      </trkpt>
      <trkpt lat="43.20697" lon="3.10184">
        <ele>72.233</ele>
        <time>2010-11-21T08:40:10Z</time>
      </trkpt>
      <trkpt lat="43.2066" lon="3.10147">
        <ele>77.186</ele>
        <time>2010-11-21T08:40:28Z</time>
      </trkpt>
      <trkpt lat="43.20614" lon="3.10101">
        <ele>78.999</ele>
        <time>2010-11-21T08:40:48Z</time>
      </trkpt>
      <trkpt lat="43.20602" lon="3.10088">
        <ele>79.431</ele>
        <time>2010-11-21T08:40:53Z</time>
      </trkpt>
      <trkpt lat="43.20583" lon="3.10094">
        <ele>79.075</ele>
        <time>2010-11-21T08:41:01Z</time>
      </trkpt>
      <trkpt lat="43.20578" lon="3.10116">
        <ele>78.453</ele>
        <time>2010-11-21T08:41:06Z</time>
      </trkpt>
      <trkpt lat="43.20536" lon="3.10109">
        <ele>76.729</ele>
        <time>2010-11-21T08:41:18Z</time>
      </trkpt>
      <trkpt lat="43.20511" lon="3.10106">
        <ele>75.066</ele>
        <time>2010-11-21T08:41:24Z</time>
      </trkpt>
      <trkpt lat="43.20448" lon="3.1009">
        <ele>75.836</ele>
        <time>2010-11-21T08:41:43Z</time>
      </trkpt>
      <trkpt lat="43.20412" lon="3.10073">
        <ele>78.555</ele>
        <time>2010-11-21T08:41:59Z</time>
      </trkpt>
      <trkpt lat="43.20378" lon="3.1005">
        <ele>83.607</ele>
        <time>2010-11-21T08:42:16Z</time>
      </trkpt>
      <trkpt lat="43.20358" lon="3.10018">
        <ele>83.582</ele>
        <time>2010-11-21T08:42:26Z</time>
      </trkpt>
      <trkpt lat="43.20372" lon="3.09979">
        <ele>84.211</ele>
        <time>2010-11-21T08:42:36Z</time>
      </trkpt>
      <trkpt lat="43.20372" lon="3.09966">
        <ele>84.906</ele>
        <time>2010-11-21T08:42:40Z</time>
      </trkpt>
      <trkpt lat="43.20364" lon="3.09944">
        <ele>88.333</ele>
        <time>2010-11-21T08:42:49Z</time>
      </trkpt>
      <trkpt lat="43.20367" lon="3.09935">
        <ele>89.011</ele>
        <time>2010-11-21T08:42:53Z</time>
      </trkpt>
      <trkpt lat="43.20377" lon="3.0992">
        <ele>91.538</ele>
        <time>2010-11-21T08:43:01Z</time>
      </trkpt>
      <trkpt lat="43.20374" lon="3.09902">
        <ele>94.93</ele>
        <time>2010-11-21T08:43:10Z</time>
      </trkpt>
      <trkpt lat="43.20372" lon="3.09887">
        <ele>95.798</ele>
        <time>2010-11-21T08:43:16Z</time>
      </trkpt>
      <trkpt lat="43.20362" lon="3.09847">
        <ele>99.014</ele>
        <time>2010-11-21T08:43:30Z</time>
      </trkpt>
      <trkpt lat="43.20362" lon="3.09834">
        <ele>99.578</ele>
        <time>2010-11-21T08:43:35Z</time>
      </trkpt>
      <trkpt lat="43.20362" lon="3.09821">
        <ele>102.218</ele>
        <time>2010-11-21T08:43:42Z</time>
      </trkpt>
      <trkpt lat="43.20353" lon="3.09817">
        <ele>102.571</ele>
        <time>2010-11-21T08:43:46Z</time>
      </trkpt>
      <trkpt lat="43.20328" lon="3.09817">
        <ele>103.48</ele>
        <time>2010-11-21T08:43:58Z</time>
      </trkpt>
      <trkpt lat="43.20311" lon="3.09812">
        <ele>104.482</ele>
        <time>2010-11-21T08:44:05Z</time>
      </trkpt>
      <trkpt lat="43.20305" lon="3.098">
        <ele>105.638</ele>
        <time>2010-11-21T08:44:11Z</time>
      </trkpt>
      <trkpt lat="43.20307" lon="3.09749">
        <ele>108.292</ele>
        <time>2010-11-21T08:44:31Z</time>
      </trkpt>
      <trkpt lat="43.20294" lon="3.09713">
        <ele>108.085</ele>
        <time>2010-11-21T08:44:45Z</time>
      </trkpt>
      <trkpt lat="43.20284" lon="3.09662">
        <ele>112.218</ele>
        <time>2010-11-21T08:45:03Z</time>
      </trkpt>
      <trkpt lat="43.20265" lon="3.09604">
        <ele>117.424</ele>
        <time>2010-11-21T08:45:23Z</time>
      </trkpt>
      <trkpt lat="43.20255" lon="3.09567">
        <ele>117.806</ele>
        <time>2010-11-21T08:45:33Z</time>
      </trkpt>
      <trkpt lat="43.2024" lon="3.09562">
        <ele>117.95</ele>
        <time>2010-11-21T08:45:38Z</time>
      </trkpt>
      <trkpt lat="43.20164" lon="3.09575">
        <ele>118.185</ele>
        <time>2010-11-21T08:46:00Z</time>
      </trkpt>
      <trkpt lat="43.20103" lon="3.09569">
        <ele>119.102</ele>
        <time>2010-11-21T08:46:16Z</time>
      </trkpt>
      <trkpt lat="43.20088" lon="3.09562">
        <ele>119.049</ele>
        <time>2010-11-21T08:46:20Z</time>
      </trkpt>
      <trkpt lat="43.20077" lon="3.09568">
        <ele>118.925</ele>
        <time>2010-11-21T08:46:23Z</time>
      </trkpt>
      <trkpt lat="43.20028" lon="3.09612">
        <ele>119.222</ele>
        <time>2010-11-21T08:46:38Z</time>
      </trkpt>
      <trkpt lat="43.2002" lon="3.09627">
        <ele>118.211</ele>
        <time>2010-11-21T08:46:41Z</time>
      </trkpt>
      <trkpt lat="43.20011" lon="3.09668">
        <ele>114.151</ele>
        <time>2010-11-21T08:46:46Z</time>
      </trkpt>
      <trkpt lat="43.19989" lon="3.09717">
        <ele>108.174</ele>
        <time>2010-11-21T08:46:51Z</time>
      </trkpt>
      <trkpt lat="43.19975" lon="3.09763">
        <ele>104.404</ele>
        <time>2010-11-21T08:46:55Z</time>
      </trkpt>
      <trkpt lat="43.19958" lon="3.09798">
        <ele>101.792</ele>
        <time>2010-11-21T08:46:59Z</time>
      </trkpt>
      <trkpt lat="43.19898" lon="3.09926">
        <ele>102.388</ele>
        <time>2010-11-21T08:47:15Z</time>
      </trkpt>
      <trkpt lat="43.19878" lon="3.09967">
        <ele>101.155</ele>
        <time>2010-11-21T08:47:21Z</time>
      </trkpt>
      <trkpt lat="43.19867" lon="3.0999">
        <ele>99.474</ele>
        <time>2010-11-21T08:47:24Z</time>
      </trkpt>
      <trkpt lat="43.19842" lon="3.10047">
        <ele>98.279</ele>
        <time>2010-11-21T08:47:31Z</time>
      </trkpt>
      <trkpt lat="43.19831" lon="3.10085">
        <ele>96.017</ele>
        <time>2010-11-21T08:47:39Z</time>
      </trkpt>
      <trkpt lat="43.19831" lon="3.10085">
        <ele>95.946</ele>
        <time>2010-11-21T08:47:40Z</time>
      </trkpt>
      <trkpt lat="43.19828" lon="3.10091">
        <ele>95.943</ele>
        <time>2010-11-21T08:47:43Z</time>
      </trkpt>
      <trkpt lat="43.1982" lon="3.1011">
        <ele>94.528</ele>
        <time>2010-11-21T08:47:47Z</time>
      </trkpt>
      <trkpt lat="43.19785" lon="3.10188">
        <ele>92.214</ele>
        <time>2010-11-21T08:47:58Z</time>
      </trkpt>
      <trkpt lat="43.19781" lon="3.10196">
        <ele>92.29</ele>
        <time>2010-11-21T08:48:02Z</time>
      </trkpt>
      <trkpt lat="43.19781" lon="3.10196">
        <ele>91.019</ele>
        <time>2010-11-21T08:48:08Z</time>
      </trkpt>
      <trkpt lat="43.19709" lon="3.10182">
        <ele>89.52</ele>
        <time>2010-11-21T08:48:12Z</time>
      </trkpt>
      <trkpt lat="43.1965" lon="3.10159">
        <ele>86.763</ele>
        <time>2010-11-21T08:48:20Z</time>
      </trkpt>
      <trkpt lat="43.19567" lon="3.10106">
        <ele>84.839</ele>
        <time>2010-11-21T08:48:31Z</time>
      </trkpt>
      <trkpt lat="43.19495" lon="3.10122">
        <ele>83.013</ele>
        <time>2010-11-21T08:48:40Z</time>
      </trkpt>
      <trkpt lat="43.19455" lon="3.10133">
        <ele>81.273</ele>
        <time>2010-11-21T08:48:45Z</time>
      </trkpt>
      <trkpt lat="43.19422" lon="3.10153">
        <ele>79.319</ele>
        <time>2010-11-21T08:48:49Z</time>
      </trkpt>
      <trkpt lat="43.19376" lon="3.10192">
        <ele>77.171</ele>
        <time>2010-11-21T08:48:55Z</time>
      </trkpt>
      <trkpt lat="43.19318" lon="3.10217">
        <ele>75.756</ele>
        <time>2010-11-21T08:49:02Z</time>
      </trkpt>
      <trkpt lat="43.19261" lon="3.10246">
        <ele>75.009</ele>
        <time>2010-11-21T08:49:09Z</time>
      </trkpt>
      <trkpt lat="43.1923" lon="3.10246">
        <ele>75.275</ele>
        <time>2010-11-21T08:49:13Z</time>
      </trkpt>
      <trkpt lat="43.19166" lon="3.10217">
        <ele>76.448</ele>
        <time>2010-11-21T08:49:23Z</time>
      </trkpt>
      <trkpt lat="43.19147" lon="3.10203">
        <ele>77.843</ele>
        <time>2010-11-21T08:49:27Z</time>
      </trkpt>
      <trkpt lat="43.19095" lon="3.10175">
        <ele>77.489</ele>
        <time>2010-11-21T08:49:31Z</time>
      </trkpt>
      <trkpt lat="43.19083" lon="3.10164">
        <ele>75.746</ele>
        <time>2010-11-21T08:49:37Z</time>
      </trkpt>
      <trkpt lat="43.19038" lon="3.10164">
        <ele>72.59</ele>
        <time>2010-11-21T08:49:41Z</time>
      </trkpt>
      <trkpt lat="43.19026" lon="3.10162">
        <ele>71.719</ele>
        <time>2010-11-21T08:49:43Z</time>
      </trkpt>
      <trkpt lat="43.18904" lon="3.10119">
        <ele>64.399</ele>
        <time>2010-11-21T08:49:53Z</time>
      </trkpt>
      <trkpt lat="43.18881" lon="3.10111">
        <ele>61.437</ele>
        <time>2010-11-21T08:49:57Z</time>
      </trkpt>
      <trkpt lat="43.18876" lon="3.10111">
        <ele>57.218</ele>
        <time>2010-11-21T08:50:04Z</time>
      </trkpt>
      <trkpt lat="43.18933" lon="3.10016">
        <ele>53.756</ele>
        <time>2010-11-21T08:50:10Z</time>
      </trkpt>
      <trkpt lat="43.18925" lon="3.09969">
        <ele>50.771</ele>
        <time>2010-11-21T08:50:16Z</time>
      </trkpt>
      <trkpt lat="43.18917" lon="3.0995">
        <ele>49.981</ele>
        <time>2010-11-21T08:50:18Z</time>
      </trkpt>
      <trkpt lat="43.18865" lon="3.09816">
        <ele>41.942</ele>
        <time>2010-11-21T08:50:31Z</time>
      </trkpt>
      <trkpt lat="43.18855" lon="3.09793">
        <ele>41.09</ele>
        <time>2010-11-21T08:50:34Z</time>
      </trkpt>
      <trkpt lat="43.18842" lon="3.09775">
        <ele>39.55</ele>
        <time>2010-11-21T08:50:37Z</time>
      </trkpt>
      <trkpt lat="43.18821" lon="3.09749">
        <ele>38.777</ele>
        <time>2010-11-21T08:50:41Z</time>
      </trkpt>
      <trkpt lat="43.18779" lon="3.09701">
        <ele>37.325</ele>
        <time>2010-11-21T08:50:49Z</time>
      </trkpt>
      <trkpt lat="43.18738" lon="3.09663">
        <ele>35.615</ele>
        <time>2010-11-21T08:50:56Z</time>
      </trkpt>
      <trkpt lat="43.18722" lon="3.09648">
        <ele>35.843</ele>
        <time>2010-11-21T08:50:59Z</time>
      </trkpt>
      <trkpt lat="43.18717" lon="3.09609">
        <ele>34.131</ele>
        <time>2010-11-21T08:51:06Z</time>
      </trkpt>
      <trkpt lat="43.18717" lon="3.09609">
        <ele>34.08</ele>
        <time>2010-11-21T08:51:08Z</time>
      </trkpt>
      <trkpt lat="43.18727" lon="3.09561">
        <ele>34.439</ele>
        <time>2010-11-21T08:51:20Z</time>
      </trkpt>
      <trkpt lat="43.18733" lon="3.09547">
        <ele>34.974</ele>
        <time>2010-11-21T08:51:24Z</time>
      </trkpt>
      <trkpt lat="43.18737" lon="3.0953">
        <ele>35.565</ele>
        <time>2010-11-21T08:51:28Z</time>
      </trkpt>
      <trkpt lat="43.18753" lon="3.09426">
        <ele>34.779</ele>
        <time>2010-11-21T08:51:42Z</time>
      </trkpt>
      <trkpt lat="43.18774" lon="3.09332">
        <ele>33.313</ele>
        <time>2010-11-21T08:51:54Z</time>
      </trkpt>
      <trkpt lat="43.18788" lon="3.0927">
        <ele>33.736</ele>
        <time>2010-11-21T08:52:06Z</time>
      </trkpt>
      <trkpt lat="43.18788" lon="3.0927">
        <ele>34.508</ele>
        <time>2010-11-21T08:52:12Z</time>
      </trkpt>
      <trkpt lat="43.18787" lon="3.09275">
        <ele>36.022</ele>
        <time>2010-11-21T08:52:18Z</time>
      </trkpt>
      <trkpt lat="43.18776" lon="3.09325">
        <ele>40.499</ele>
        <time>2010-11-21T08:52:29Z</time>
      </trkpt>
      <trkpt lat="43.18773" lon="3.09341">
        <ele>41.48</ele>
        <time>2010-11-21T08:52:32Z</time>
      </trkpt>
      <trkpt lat="43.1877" lon="3.09352">
        <ele>42.542</ele>
        <time>2010-11-21T08:52:34Z</time>
      </trkpt>
      <trkpt lat="43.18749" lon="3.09446">
        <ele>42.125</ele>
        <time>2010-11-21T08:52:48Z</time>
      </trkpt>
      <trkpt lat="43.18736" lon="3.09534">
        <ele>40.086</ele>
        <time>2010-11-21T08:53:03Z</time>
      </trkpt>
      <trkpt lat="43.18736" lon="3.09534">
        <ele>38.135</ele>
        <time>2010-11-21T08:53:29Z</time>
      </trkpt>
      <trkpt lat="43.18736" lon="3.09534">
        <ele>37.359</ele>
        <time>2010-11-21T08:54:08Z</time>
      </trkpt>
      <trkpt lat="43.18736" lon="3.09534">
        <ele>37.545</ele>
        <time>2010-11-21T08:54:39Z</time>
      </trkpt>
      <trkpt lat="43.18736" lon="3.09534">
        <ele>37.522</ele>
        <time>2010-11-21T08:54:42Z</time>
      </trkpt>
      <trkpt lat="43.18727" lon="3.0954">
        <ele>37.726</ele>
        <time>2010-11-21T08:54:47Z</time>
      </trkpt>
      <trkpt lat="43.18691" lon="3.09523">
        <ele>39.166</ele>
        <time>2010-11-21T08:54:58Z</time>
      </trkpt>
      <trkpt lat="43.18691" lon="3.09523">
        <ele>39.204</ele>
        <time>2010-11-21T08:54:59Z</time>
      </trkpt>
      <trkpt lat="43.18672" lon="3.09506">
        <ele>38.76</ele>
        <time>2010-11-21T08:55:06Z</time>
      </trkpt>
      <trkpt lat="43.18666" lon="3.09501">
        <ele>38.788</ele>
        <time>2010-11-21T08:55:08Z</time>
      </trkpt>
      <trkpt lat="43.18651" lon="3.09486">
        <ele>38.991</ele>
        <time>2010-11-21T08:55:12Z</time>
      </trkpt>
      <trkpt lat="43.18631" lon="3.09493">
        <ele>38.845</ele>
        <time>2010-11-21T08:55:15Z</time>
      </trkpt>
      <trkpt lat="43.18628" lon="3.09491">
        <ele>39.112</ele>
        <time>2010-11-21T08:55:17Z</time>
      </trkpt>
      <trkpt lat="43.18618" lon="3.09486">
        <ele>38.92</ele>
        <time>2010-11-21T08:55:20Z</time>
      </trkpt>
      <trkpt lat="43.18588" lon="3.095">
        <ele>41.086</ele>
        <time>2010-11-21T08:55:28Z</time>
      </trkpt>
      <trkpt lat="43.18572" lon="3.0949">
        <ele>41.847</ele>
        <time>2010-11-21T08:55:32Z</time>
      </trkpt>
      <trkpt lat="43.1854" lon="3.09479">
        <ele>42.713</ele>
        <time>2010-11-21T08:55:38Z</time>
      </trkpt>
      <trkpt lat="43.18487" lon="3.09453">
        <ele>40.124</ele>
        <time>2010-11-21T08:55:48Z</time>
      </trkpt>
      <trkpt lat="43.18458" lon="3.09426">
        <ele>40.178</ele>
        <time>2010-11-21T08:55:54Z</time>
      </trkpt>
      <trkpt lat="43.18433" lon="3.09424">
        <ele>40.749</ele>
        <time>2010-11-21T08:56:00Z</time>
      </trkpt>
      <trkpt lat="43.18392" lon="3.09507">
        <ele>40.548</ele>
        <time>2010-11-21T08:56:13Z</time>
      </trkpt>
      <trkpt lat="43.18366" lon="3.09508">
        <ele>40.119</ele>
        <time>2010-11-21T08:56:19Z</time>
      </trkpt>
      <trkpt lat="43.18357" lon="3.09501">
        <ele>39.813</ele>
        <time>2010-11-21T08:56:21Z</time>
      </trkpt>
      <trkpt lat="43.18337" lon="3.09492">
        <ele>38.908</ele>
        <time>2010-11-21T08:56:25Z</time>
      </trkpt>
      <trkpt lat="43.18267" lon="3.09486">
        <ele>38.72</ele>
        <time>2010-11-21T08:56:38Z</time>
      </trkpt>
      <trkpt lat="43.18207" lon="3.09446">
        <ele>40.171</ele>
        <time>2010-11-21T08:56:51Z</time>
      </trkpt>
      <trkpt lat="43.1818" lon="3.09404">
        <ele>45.131</ele>
        <time>2010-11-21T08:57:05Z</time>
      </trkpt>
      <trkpt lat="43.18162" lon="3.09356">
        <ele>49.03</ele>
        <time>2010-11-21T08:57:23Z</time>
      </trkpt>
      <trkpt lat="43.18131" lon="3.09326">
        <ele>52.496</ele>
        <time>2010-11-21T08:57:40Z</time>
      </trkpt>
      <trkpt lat="43.18092" lon="3.09271">
        <ele>55.406</ele>
        <time>2010-11-21T08:57:58Z</time>
      </trkpt>
      <trkpt lat="43.18056" lon="3.09228">
        <ele>58.785</ele>
        <time>2010-11-21T08:58:16Z</time>
      </trkpt>
      <trkpt lat="43.18033" lon="3.09199">
        <ele>63.766</ele>
        <time>2010-11-21T08:58:30Z</time>
      </trkpt>
      <trkpt lat="43.18014" lon="3.09171">
        <ele>67.635</ele>
        <time>2010-11-21T08:58:43Z</time>
      </trkpt>
      <trkpt lat="43.17968" lon="3.0911">
        <ele>71.228</ele>
        <time>2010-11-21T08:59:10Z</time>
      </trkpt>
      <trkpt lat="43.17936" lon="3.09045">
        <ele>77.715</ele>
        <time>2010-11-21T08:59:33Z</time>
      </trkpt>
      <trkpt lat="43.17902" lon="3.09007">
        <ele>82.447</ele>
        <time>2010-11-21T08:59:51Z</time>
      </trkpt>
      <trkpt lat="43.17862" lon="3.08942">
        <ele>84.189</ele>
        <time>2010-11-21T09:00:12Z</time>
      </trkpt>
      <trkpt lat="43.17835" lon="3.08893">
        <ele>90.888</ele>
        <time>2010-11-21T09:00:30Z</time>
      </trkpt>
      <trkpt lat="43.17814" lon="3.08823">
        <ele>94.08</ele>
        <time>2010-11-21T09:00:51Z</time>
      </trkpt>
      <trkpt lat="43.17815" lon="3.08798">
        <ele>94.859</ele>
        <time>2010-11-21T09:00:56Z</time>
      </trkpt>
      <trkpt lat="43.17811" lon="3.08782">
        <ele>94.822</ele>
        <time>2010-11-21T09:01:00Z</time>
      </trkpt>
      <trkpt lat="43.17774" lon="3.08722">
        <ele>97.631</ele>
        <time>2010-11-21T09:01:17Z</time>
      </trkpt>
      <trkpt lat="43.17761" lon="3.08732">
        <ele>98.145</ele>
        <time>2010-11-21T09:01:22Z</time>
      </trkpt>
      <trkpt lat="43.17737" lon="3.08747">
        <ele>99.173</ele>
        <time>2010-11-21T09:01:31Z</time>
      </trkpt>
      <trkpt lat="43.17712" lon="3.08733">
        <ele>99.838</ele>
        <time>2010-11-21T09:01:38Z</time>
      </trkpt>
      <trkpt lat="43.17704" lon="3.08691">
        <ele>105.952</ele>
        <time>2010-11-21T09:01:52Z</time>
      </trkpt>
      <trkpt lat="43.17715" lon="3.08642">
        <ele>108.702</ele>
        <time>2010-11-21T09:02:08Z</time>
      </trkpt>
      <trkpt lat="43.17727" lon="3.08596">
        <ele>110.162</ele>
        <time>2010-11-21T09:02:22Z</time>
      </trkpt>
      <trkpt lat="43.17736" lon="3.08526">
        <ele>113.659</ele>
        <time>2010-11-21T09:02:39Z</time>
      </trkpt>
      <trkpt lat="43.17726" lon="3.0847">
        <ele>114.623</ele>
        <time>2010-11-21T09:02:52Z</time>
      </trkpt>
      <trkpt lat="43.17745" lon="3.08431">
        <ele>114.705</ele>
        <time>2010-11-21T09:03:01Z</time>
      </trkpt>
      <trkpt lat="43.178" lon="3.08388">
        <ele>120.586</ele>
        <time>2010-11-21T09:03:18Z</time>
      </trkpt>
      <trkpt lat="43.17869" lon="3.08332">
        <ele>126.079</ele>
        <time>2010-11-21T09:03:39Z</time>
      </trkpt>
      <trkpt lat="43.17915" lon="3.08286">
        <ele>125.127</ele>
        <time>2010-11-21T09:03:52Z</time>
      </trkpt>
      <trkpt lat="43.17923" lon="3.08278">
        <ele>124.899</ele>
        <time>2010-11-21T09:03:54Z</time>
      </trkpt>
      <trkpt lat="43.17944" lon="3.08257">
        <ele>125.391</ele>
        <time>2010-11-21T09:03:59Z</time>
      </trkpt>
      <trkpt lat="43.17974" lon="3.08227">
        <ele>124.562</ele>
        <time>2010-11-21T09:04:06Z</time>
      </trkpt>
      <trkpt lat="43.18004" lon="3.08216">
        <ele>123.3</ele>
        <time>2010-11-21T09:04:11Z</time>
      </trkpt>
      <trkpt lat="43.18023" lon="3.08209">
        <ele>121.569</ele>
        <time>2010-11-21T09:04:14Z</time>
      </trkpt>
      <trkpt lat="43.18114" lon="3.08224">
        <ele>120.841</ele>
        <time>2010-11-21T09:04:30Z</time>
      </trkpt>
      <trkpt lat="43.1816" lon="3.08242">
        <ele>126.463</ele>
        <time>2010-11-21T09:04:44Z</time>
      </trkpt>
      <trkpt lat="43.18219" lon="3.08246">
        <ele>131.806</ele>
        <time>2010-11-21T09:05:03Z</time>
      </trkpt>
      <trkpt lat="43.18268" lon="3.08219">
        <ele>131.116</ele>
        <time>2010-11-21T09:05:16Z</time>
      </trkpt>
      <trkpt lat="43.18356" lon="3.08167">
        <ele>130.19</ele>
        <time>2010-11-21T09:05:33Z</time>
      </trkpt>
      <trkpt lat="43.18413" lon="3.08148">
        <ele>125.588</ele>
        <time>2010-11-21T09:05:42Z</time>
      </trkpt>
      <trkpt lat="43.18443" lon="3.08135">
        <ele>122.434</ele>
        <time>2010-11-21T09:05:46Z</time>
      </trkpt>
      <trkpt lat="43.18447" lon="3.08077">
        <ele>117.034</ele>
        <time>2010-11-21T09:05:52Z</time>
      </trkpt>
      <trkpt lat="43.1844" lon="3.08006">
        <ele>113.849</ele>
        <time>2010-11-21T09:05:58Z</time>
      </trkpt>
      <trkpt lat="43.18459" lon="3.07973">
        <ele>110.199</ele>
        <time>2010-11-21T09:06:05Z</time>
      </trkpt>
      <trkpt lat="43.18467" lon="3.07992">
        <ele>109.15</ele>
        <time>2010-11-21T09:06:08Z</time>
      </trkpt>
      <trkpt lat="43.18474" lon="3.08009">
        <ele>108.545</ele>
        <time>2010-11-21T09:06:10Z</time>
      </trkpt>
      <trkpt lat="43.18524" lon="3.08042">
        <ele>104.601</ele>
        <time>2010-11-21T09:06:18Z</time>
      </trkpt>
      <trkpt lat="43.18583" lon="3.08042">
        <ele>101.306</ele>
        <time>2010-11-21T09:06:25Z</time>
      </trkpt>
      <trkpt lat="43.18623" lon="3.07999">
        <ele>98.722</ele>
        <time>2010-11-21T09:06:32Z</time>
      </trkpt>
      <trkpt lat="43.18625" lon="3.07988">
        <ele>98.547</ele>
        <time>2010-11-21T09:06:33Z</time>
      </trkpt>
      <trkpt lat="43.18661" lon="3.07756">
        <ele>90.945</ele>
        <time>2010-11-21T09:06:54Z</time>
      </trkpt>
      <trkpt lat="43.18708" lon="3.07603">
        <ele>79.879</ele>
        <time>2010-11-21T09:07:06Z</time>
      </trkpt>
      <trkpt lat="43.18731" lon="3.07512">
        <ele>75.329</ele>
        <time>2010-11-21T09:07:14Z</time>
      </trkpt>
      <trkpt lat="43.18744" lon="3.07475">
        <ele>73.78</ele>
        <time>2010-11-21T09:07:18Z</time>
      </trkpt>
      <trkpt lat="43.18789" lon="3.07432">
        <ele>69.915</ele>
        <time>2010-11-21T09:07:25Z</time>
      </trkpt>
      <trkpt lat="43.18856" lon="3.07333">
        <ele>62.396</ele>
        <time>2010-11-21T09:07:36Z</time>
      </trkpt>
      <trkpt lat="43.1886" lon="3.0732">
        <ele>61.641</ele>
        <time>2010-11-21T09:07:37Z</time>
      </trkpt>
      <trkpt lat="43.18896" lon="3.07163">
        <ele>50.606</ele>
        <time>2010-11-21T09:07:48Z</time>
      </trkpt>
      <trkpt lat="43.18954" lon="3.07056">
        <ele>39.481</ele>
        <time>2010-11-21T09:07:56Z</time>
      </trkpt>
      <trkpt lat="43.19041" lon="3.06874">
        <ele>21.901</ele>
        <time>2010-11-21T09:08:09Z</time>
      </trkpt>
      <trkpt lat="43.19048" lon="3.06865">
        <ele>21.24</ele>
        <time>2010-11-21T09:08:10Z</time>
      </trkpt>
      <trkpt lat="43.19064" lon="3.06847">
        <ele>19.801</ele>
        <time>2010-11-21T09:08:13Z</time>
      </trkpt>
      <trkpt lat="43.19083" lon="3.06862">
        <ele>17.772</ele>
        <time>2010-11-21T09:08:19Z</time>
      </trkpt>
      <trkpt lat="43.19157" lon="3.06978">
        <ele>14.43</ele>
        <time>2010-11-21T09:08:32Z</time>
      </trkpt>
      <trkpt lat="43.19209" lon="3.07044">
        <ele>13.505</ele>
        <time>2010-11-21T09:08:41Z</time>
      </trkpt>
      <trkpt lat="43.19218" lon="3.07095">
        <ele>13.737</ele>
        <time>2010-11-21T09:08:47Z</time>
      </trkpt>
      <trkpt lat="43.19182" lon="3.07219">
        <ele>17.784</ele>
        <time>2010-11-21T09:09:03Z</time>
      </trkpt>
      <trkpt lat="43.1917" lon="3.07262">
        <ele>18.771</ele>
        <time>2010-11-21T09:09:10Z</time>
      </trkpt>
      <trkpt lat="43.19172" lon="3.07345">
        <ele>21.31</ele>
        <time>2010-11-21T09:09:23Z</time>
      </trkpt>
      <trkpt lat="43.19164" lon="3.07446">
        <ele>21.295</ele>
        <time>2010-11-21T09:09:37Z</time>
      </trkpt>
      <trkpt lat="43.19138" lon="3.07621">
        <ele>20.236</ele>
        <time>2010-11-21T09:09:58Z</time>
      </trkpt>
      <trkpt lat="43.19138" lon="3.0763">
        <ele>20.219</ele>
        <time>2010-11-21T09:09:59Z</time>
      </trkpt>
      <trkpt lat="43.19164" lon="3.07712">
        <ele>19.134</ele>
        <time>2010-11-21T09:10:09Z</time>
      </trkpt>
      <trkpt lat="43.19169" lon="3.07718">
        <ele>18.993</ele>
        <time>2010-11-21T09:10:10Z</time>
      </trkpt>
      <trkpt lat="43.19259" lon="3.07817">
        <ele>19.607</ele>
        <time>2010-11-21T09:10:29Z</time>
      </trkpt>
      <trkpt lat="43.19281" lon="3.07841">
        <ele>19.82</ele>
        <time>2010-11-21T09:10:34Z</time>
      </trkpt>
      <trkpt lat="43.19295" lon="3.07839">
        <ele>20.822</ele>
        <time>2010-11-21T09:10:39Z</time>
      </trkpt>
      <trkpt lat="43.19305" lon="3.07802">
        <ele>21.004</ele>
        <time>2010-11-21T09:10:53Z</time>
      </trkpt>
      <trkpt lat="43.19307" lon="3.07799">
        <ele>20.988</ele>
        <time>2010-11-21T09:10:54Z</time>
      </trkpt>
      <trkpt lat="43.19347" lon="3.07723">
        <ele>20.457</ele>
        <time>2010-11-21T09:11:06Z</time>
      </trkpt>
      <trkpt lat="43.1945" lon="3.07528">
        <ele>17.678</ele>
        <time>2010-11-21T09:11:31Z</time>
      </trkpt>
      <trkpt lat="43.19535" lon="3.07399">
        <ele>11.712</ele>
        <time>2010-11-21T09:11:46Z</time>
      </trkpt>
      <trkpt lat="43.19547" lon="3.07381">
        <ele>10.395</ele>
        <time>2010-11-21T09:11:48Z</time>
      </trkpt>
      <trkpt lat="43.19563" lon="3.07357">
        <ele>9.696</ele>
        <time>2010-11-21T09:11:51Z</time>
      </trkpt>
      <trkpt lat="43.19616" lon="3.07351">
        <ele>12.743</ele>
        <time>2010-11-21T09:11:59Z</time>
      </trkpt>
      <trkpt lat="43.19626" lon="3.07359">
        <ele>13.076</ele>
        <time>2010-11-21T09:12:01Z</time>
      </trkpt>
      <trkpt lat="43.19706" lon="3.07451">
        <ele>17.837</ele>
        <time>2010-11-21T09:12:21Z</time>
      </trkpt>
      <trkpt lat="43.19719" lon="3.07459">
        <ele>18.643</ele>
        <time>2010-11-21T09:12:24Z</time>
      </trkpt>
      <trkpt lat="43.19784" lon="3.07475">
        <ele>20.86</ele>
        <time>2010-11-21T09:12:37Z</time>
      </trkpt>
      <trkpt lat="43.19821" lon="3.07472">
        <ele>22.244</ele>
        <time>2010-11-21T09:12:44Z</time>
      </trkpt>
      <trkpt lat="43.19865" lon="3.07462">
        <ele>23.461</ele>
        <time>2010-11-21T09:12:53Z</time>
      </trkpt>
      <trkpt lat="43.19986" lon="3.07453">
        <ele>24.902</ele>
        <time>2010-11-21T09:13:15Z</time>
      </trkpt>
      <trkpt lat="43.20087" lon="3.07441">
        <ele>25.79</ele>
        <time>2010-11-21T09:13:33Z</time>
      </trkpt>
      <trkpt lat="43.2021" lon="3.07429">
        <ele>27.108</ele>
        <time>2010-11-21T09:13:51Z</time>
      </trkpt>
      <trkpt lat="43.20246" lon="3.07431">
        <ele>26.858</ele>
        <time>2010-11-21T09:13:56Z</time>
      </trkpt>
      <trkpt lat="43.20339" lon="3.07451">
        <ele>24.857</ele>
        <time>2010-11-21T09:14:12Z</time>
      </trkpt>
      <trkpt lat="43.20355" lon="3.07453">
        <ele>29.379</ele>
        <time>2010-11-21T09:14:20Z</time>
      </trkpt>
      <trkpt lat="43.20364" lon="3.07404">
        <ele>28.95</ele>
        <time>2010-11-21T09:14:28Z</time>
      </trkpt>
      <trkpt lat="43.20365" lon="3.07397">
        <ele>28.613</ele>
        <time>2010-11-21T09:14:29Z</time>
      </trkpt>
      <trkpt lat="43.20365" lon="3.0739">
        <ele>27.571</ele>
        <time>2010-11-21T09:14:33Z</time>
      </trkpt>
      <trkpt lat="43.20361" lon="3.07351">
        <ele>25.499</ele>
        <time>2010-11-21T09:14:36Z</time>
      </trkpt>
      <trkpt lat="43.20361" lon="3.0727">
        <ele>23.214</ele>
        <time>2010-11-21T09:14:45Z</time>
      </trkpt>
      <trkpt lat="43.20386" lon="3.07106">
        <ele>17.121</ele>
        <time>2010-11-21T09:15:02Z</time>
      </trkpt>
      <trkpt lat="43.20399" lon="3.0704">
        <ele>15.087</ele>
        <time>2010-11-21T09:15:13Z</time>
      </trkpt>
      <trkpt lat="43.20411" lon="3.06978">
        <ele>13.611</ele>
        <time>2010-11-21T09:15:22Z</time>
      </trkpt>
      <trkpt lat="43.20421" lon="3.06929">
        <ele>13.367</ele>
        <time>2010-11-21T09:15:30Z</time>
      </trkpt>
      <trkpt lat="43.20426" lon="3.06903">
        <ele>12.896</ele>
        <time>2010-11-21T09:15:37Z</time>
      </trkpt>
      <trkpt lat="43.20434" lon="3.06867">
        <ele>14.639</ele>
        <time>2010-11-21T09:15:49Z</time>
      </trkpt>
      <trkpt lat="43.20439" lon="3.06838">
        <ele>15.033</ele>
        <time>2010-11-21T09:15:55Z</time>
      </trkpt>
      <trkpt lat="43.20451" lon="3.06781">
        <ele>15.612</ele>
        <time>2010-11-21T09:16:04Z</time>
      </trkpt>
      <trkpt lat="43.20451" lon="3.0678">
        <ele>14.591</ele>
        <time>2010-11-21T09:16:08Z</time>
      </trkpt>
      <trkpt lat="43.20537" lon="3.06788">
        <ele>13.105</ele>
        <time>2010-11-21T09:16:21Z</time>
      </trkpt>
      <trkpt lat="43.2056" lon="3.068">
        <ele>12.677</ele>
        <time>2010-11-21T09:16:25Z</time>
      </trkpt>
      <trkpt lat="43.20652" lon="3.0687">
        <ele>9.68</ele>
        <time>2010-11-21T09:16:43Z</time>
      </trkpt>
      <trkpt lat="43.20657" lon="3.06873">
        <ele>9.982</ele>
        <time>2010-11-21T09:16:44Z</time>
      </trkpt>
      <trkpt lat="43.20674" lon="3.06878">
        <ele>9.848</ele>
        <time>2010-11-21T09:16:47Z</time>
      </trkpt>
      <trkpt lat="43.20685" lon="3.0688">
        <ele>9.59</ele>
        <time>2010-11-21T09:16:49Z</time>
      </trkpt>
      <trkpt lat="43.20713" lon="3.06892">
        <ele>8.717</ele>
        <time>2010-11-21T09:16:54Z</time>
      </trkpt>
      <trkpt lat="43.20826" lon="3.06951">
        <ele>6.996</ele>
        <time>2010-11-21T09:17:16Z</time>
      </trkpt>
      <trkpt lat="43.20839" lon="3.06957">
        <ele>7.23</ele>
        <time>2010-11-21T09:17:19Z</time>
      </trkpt>
      <trkpt lat="43.20911" lon="3.07048">
        <ele>6.238</ele>
        <time>2010-11-21T09:17:31Z</time>
      </trkpt>
      <trkpt lat="43.20957" lon="3.07026">
        <ele>6.715</ele>
        <time>2010-11-21T09:17:45Z</time>
      </trkpt>
      <trkpt lat="43.21022" lon="3.06991">
        <ele>7.376</ele>
        <time>2010-11-21T09:17:59Z</time>
      </trkpt>
      <trkpt lat="43.21115" lon="3.06894">
        <ele>6.614</ele>
        <time>2010-11-21T09:18:18Z</time>
      </trkpt>
      <trkpt lat="43.21169" lon="3.06773">
        <ele>6.822</ele>
        <time>2010-11-21T09:18:35Z</time>
      </trkpt>
      <trkpt lat="43.21191" lon="3.06736">
        <ele>6.962</ele>
        <time>2010-11-21T09:18:41Z</time>
      </trkpt>
      <trkpt lat="43.2123" lon="3.06696">
        <ele>6.415</ele>
        <time>2010-11-21T09:18:49Z</time>
      </trkpt>
      <trkpt lat="43.2123" lon="3.06671">
        <ele>6.545</ele>
        <time>2010-11-21T09:18:53Z</time>
      </trkpt>
      <trkpt lat="43.21186" lon="3.06532">
        <ele>6.024</ele>
        <time>2010-11-21T09:19:11Z</time>
      </trkpt>
      <trkpt lat="43.21128" lon="3.06382">
        <ele>5.232</ele>
        <time>2010-11-21T09:19:30Z</time>
      </trkpt>
      <trkpt lat="43.21084" lon="3.06253">
        <ele>5.731</ele>
        <time>2010-11-21T09:19:46Z</time>
      </trkpt>
      <trkpt lat="43.20987" lon="3.06072">
        <ele>5.994</ele>
        <time>2010-11-21T09:20:10Z</time>
      </trkpt>
      <trkpt lat="43.20886" lon="3.05881">
        <ele>6.16</ele>
        <time>2010-11-21T09:20:35Z</time>
      </trkpt>
      <trkpt lat="43.20827" lon="3.05713">
        <ele>6.829</ele>
        <time>2010-11-21T09:20:55Z</time>
      </trkpt>
      <trkpt lat="43.2075" lon="3.05496">
        <ele>6.433</ele>
        <time>2010-11-21T09:21:22Z</time>
      </trkpt>
      <trkpt lat="43.20672" lon="3.05302">
        <ele>6.406</ele>
        <time>2010-11-21T09:21:47Z</time>
      </trkpt>
      <trkpt lat="43.20667" lon="3.05289">
        <ele>6.642</ele>
        <time>2010-11-21T09:21:49Z</time>
      </trkpt>
      <trkpt lat="43.20662" lon="3.05255">
        <ele>6.779</ele>
        <time>2010-11-21T09:21:55Z</time>
      </trkpt>
      <trkpt lat="43.20752" lon="3.05076">
        <ele>7.115</ele>
        <time>2010-11-21T09:22:20Z</time>
      </trkpt>
      <trkpt lat="43.20802" lon="3.04959">
        <ele>7.133</ele>
        <time>2010-11-21T09:22:36Z</time>
      </trkpt>
      <trkpt lat="43.20877" lon="3.04785">
        <ele>5.738</ele>
        <time>2010-11-21T09:22:59Z</time>
      </trkpt>
      <trkpt lat="43.20981" lon="3.04547">
        <ele>6.403</ele>
        <time>2010-11-21T09:23:31Z</time>
      </trkpt>
      <trkpt lat="43.21087" lon="3.04384">
        <ele>6.288</ele>
        <time>2010-11-21T09:23:56Z</time>
      </trkpt>
      <trkpt lat="43.21155" lon="3.04281">
        <ele>6.31</ele>
        <time>2010-11-21T09:24:12Z</time>
      </trkpt>
      <trkpt lat="43.21176" lon="3.04243">
        <ele>5.974</ele>
        <time>2010-11-21T09:24:19Z</time>
      </trkpt>
      <trkpt lat="43.21161" lon="3.04263">
        <ele>6.552</ele>
        <time>2010-11-21T09:24:23Z</time>
      </trkpt>
      <trkpt lat="43.21289" lon="3.04385">
        <ele>7.478</ele>
        <time>2010-11-21T09:24:45Z</time>
      </trkpt>
      <trkpt lat="43.21406" lon="3.04478">
        <ele>8.377</ele>
        <time>2010-11-21T09:25:08Z</time>
      </trkpt>
      <trkpt lat="43.21513" lon="3.04576">
        <ele>7.644</ele>
        <time>2010-11-21T09:25:30Z</time>
      </trkpt>
      <trkpt lat="43.21602" lon="3.04671">
        <ele>7.253</ele>
        <time>2010-11-21T09:25:49Z</time>
      </trkpt>
      <trkpt lat="43.21665" lon="3.04744">
        <ele>8.325</ele>
        <time>2010-11-21T09:26:03Z</time>
      </trkpt>
      <trkpt lat="43.21682" lon="3.04764">
        <ele>9.525</ele>
        <time>2010-11-21T09:26:07Z</time>
      </trkpt>
      <trkpt lat="43.21716" lon="3.04804">
        <ele>9.268</ele>
        <time>2010-11-21T09:26:15Z</time>
      </trkpt>
      <trkpt lat="43.21729" lon="3.04817">
        <ele>9.235</ele>
        <time>2010-11-21T09:26:18Z</time>
      </trkpt>
      <trkpt lat="43.21811" lon="3.04889">
        <ele>7.662</ele>
        <time>2010-11-21T09:26:34Z</time>
      </trkpt>
      <trkpt lat="43.21901" lon="3.05003">
        <ele>8.311</ele>
        <time>2010-11-21T09:26:55Z</time>
      </trkpt>
      <trkpt lat="43.21981" lon="3.05118">
        <ele>9.044</ele>
        <time>2010-11-21T09:27:15Z</time>
      </trkpt>
      <trkpt lat="43.2203" lon="3.05199">
        <ele>8.8</ele>
        <time>2010-11-21T09:27:29Z</time>
      </trkpt>
      <trkpt lat="43.2208" lon="3.05298">
        <ele>9.827</ele>
        <time>2010-11-21T09:27:45Z</time>
      </trkpt>
      <trkpt lat="43.2217" lon="3.05359">
        <ele>10.09</ele>
        <time>2010-11-21T09:28:02Z</time>
      </trkpt>
      <trkpt lat="43.22303" lon="3.05399">
        <ele>10.951</ele>
        <time>2010-11-21T09:28:25Z</time>
      </trkpt>
      <trkpt lat="43.22456" lon="3.05449">
        <ele>12.253</ele>
        <time>2010-11-21T09:28:51Z</time>
      </trkpt>
      <trkpt lat="43.22587" lon="3.05488">
        <ele>13.142</ele>
        <time>2010-11-21T09:29:14Z</time>
      </trkpt>
      <trkpt lat="43.22603" lon="3.05493">
        <ele>13.19</ele>
        <time>2010-11-21T09:29:17Z</time>
      </trkpt>
      <trkpt lat="43.22689" lon="3.05514">
        <ele>14.094</ele>
        <time>2010-11-21T09:29:33Z</time>
      </trkpt>
      <trkpt lat="43.22754" lon="3.05543">
        <ele>13.577</ele>
        <time>2010-11-21T09:29:46Z</time>
      </trkpt>
      <trkpt lat="43.22862" lon="3.05588">
        <ele>13.445</ele>
        <time>2010-11-21T09:30:06Z</time>
      </trkpt>
      <trkpt lat="43.22888" lon="3.056">
        <ele>13.539</ele>
        <time>2010-11-21T09:30:11Z</time>
      </trkpt>
      <trkpt lat="43.22897" lon="3.05621">
        <ele>14.189</ele>
        <time>2010-11-21T09:30:15Z</time>
      </trkpt>
      <trkpt lat="43.22897" lon="3.05634">
        <ele>14.078</ele>
        <time>2010-11-21T09:30:17Z</time>
      </trkpt>
      <trkpt lat="43.22934" lon="3.05649">
        <ele>13.597</ele>
        <time>2010-11-21T09:30:22Z</time>
      </trkpt>
      <trkpt lat="43.22953" lon="3.05656">
        <ele>13.793</ele>
        <time>2010-11-21T09:30:26Z</time>
      </trkpt>
      <trkpt lat="43.22978" lon="3.05675">
        <ele>13.585</ele>
        <time>2010-11-21T09:30:30Z</time>
      </trkpt>
      <trkpt lat="43.22994" lon="3.05687">
        <ele>14.495</ele>
        <time>2010-11-21T09:30:33Z</time>
      </trkpt>
      <trkpt lat="43.23038" lon="3.05721">
        <ele>14.609</ele>
        <time>2010-11-21T09:30:41Z</time>
      </trkpt>
      <trkpt lat="43.23082" lon="3.05744">
        <ele>14.301</ele>
        <time>2010-11-21T09:30:49Z</time>
      </trkpt>
      <trkpt lat="43.23083" lon="3.05761">
        <ele>14.606</ele>
        <time>2010-11-21T09:30:53Z</time>
      </trkpt>
      <trkpt lat="43.23079" lon="3.05781">
        <ele>14.502</ele>
        <time>2010-11-21T09:30:56Z</time>
      </trkpt>
      <trkpt lat="43.23065" lon="3.0586">
        <ele>12.409</ele>
        <time>2010-11-21T09:31:06Z</time>
      </trkpt>
      <trkpt lat="43.23043" lon="3.05985">
        <ele>11.463</ele>
        <time>2010-11-21T09:31:22Z</time>
      </trkpt>
      <trkpt lat="43.23043" lon="3.05985">
        <ele>12.201</ele>
        <time>2010-11-21T09:31:37Z</time>
      </trkpt>
      <trkpt lat="43.23052" lon="3.06016">
        <ele>13.183</ele>
        <time>2010-11-21T09:32:00Z</time>
      </trkpt>
      <trkpt lat="43.2306" lon="3.06103">
        <ele>15.027</ele>
        <time>2010-11-21T09:32:12Z</time>
      </trkpt>
      <trkpt lat="43.2308" lon="3.06228">
        <ele>13.929</ele>
        <time>2010-11-21T09:32:27Z</time>
      </trkpt>
      <trkpt lat="43.23096" lon="3.06256">
        <ele>13.097</ele>
        <time>2010-11-21T09:32:31Z</time>
      </trkpt>
      <trkpt lat="43.23132" lon="3.06306">
        <ele>12.531</ele>
        <time>2010-11-21T09:32:40Z</time>
      </trkpt>
      <trkpt lat="43.23144" lon="3.0629">
        <ele>14.11</ele>
        <time>2010-11-21T09:32:44Z</time>
      </trkpt>
      <trkpt lat="43.23162" lon="3.06257">
        <ele>14.395</ele>
        <time>2010-11-21T09:32:49Z</time>
      </trkpt>
      <trkpt lat="43.23174" lon="3.06236">
        <ele>14.885</ele>
        <time>2010-11-21T09:32:52Z</time>
      </trkpt>
      <trkpt lat="43.23202" lon="3.0623">
        <ele>14.471</ele>
        <time>2010-11-21T09:32:57Z</time>
      </trkpt>
      <trkpt lat="43.23239" lon="3.06256">
        <ele>13.16</ele>
        <time>2010-11-21T09:33:03Z</time>
      </trkpt>
      <trkpt lat="43.23263" lon="3.06295">
        <ele>12.468</ele>
        <time>2010-11-21T09:33:09Z</time>
      </trkpt>
      <trkpt lat="43.23295" lon="3.06335">
        <ele>10.838</ele>
        <time>2010-11-21T09:33:16Z</time>
      </trkpt>
      <trkpt lat="43.23323" lon="3.06351">
        <ele>11.672</ele>
        <time>2010-11-21T09:33:21Z</time>
      </trkpt>
      <trkpt lat="43.23361" lon="3.06375">
        <ele>11.586</ele>
        <time>2010-11-21T09:33:28Z</time>
      </trkpt>
      <trkpt lat="43.2338" lon="3.0639">
        <ele>11.426</ele>
        <time>2010-11-21T09:33:32Z</time>
      </trkpt>
      <trkpt lat="43.23429" lon="3.06403">
        <ele>11.866</ele>
        <time>2010-11-21T09:33:43Z</time>
      </trkpt>
      <trkpt lat="43.23432" lon="3.06403">
        <ele>12.071</ele>
        <time>2010-11-21T09:33:44Z</time>
      </trkpt>
      <trkpt lat="43.23442" lon="3.06403">
        <ele>12.806</ele>
        <time>2010-11-21T09:33:47Z</time>
      </trkpt>
      <trkpt lat="43.2351" lon="3.06407">
        <ele>14.765</ele>
        <time>2010-11-21T09:33:59Z</time>
      </trkpt>
      <trkpt lat="43.23546" lon="3.06408">
        <ele>15.28</ele>
        <time>2010-11-21T09:34:05Z</time>
      </trkpt>
      <trkpt lat="43.23627" lon="3.06416">
        <ele>14.032</ele>
        <time>2010-11-21T09:34:20Z</time>
      </trkpt>
      <trkpt lat="43.23627" lon="3.06416">
        <ele>15.064</ele>
        <time>2010-11-21T09:34:27Z</time>
      </trkpt>
      <trkpt lat="43.23635" lon="3.06358">
        <ele>13.581</ele>
        <time>2010-11-21T09:34:40Z</time>
      </trkpt>
      <trkpt lat="43.23635" lon="3.06352">
        <ele>13.691</ele>
        <time>2010-11-21T09:34:42Z</time>
      </trkpt>
      <trkpt lat="43.23636" lon="3.0635">
        <ele>12.051</ele>
        <time>2010-11-21T09:34:49Z</time>
      </trkpt>
      <trkpt lat="43.23635" lon="3.06354">
        <ele>12.849</ele>
        <time>2010-11-21T09:35:09Z</time>
      </trkpt>
      <trkpt lat="43.23635" lon="3.06354">
        <ele>13.422</ele>
        <time>2010-11-21T09:35:30Z</time>
      </trkpt>
      <trkpt lat="43.23635" lon="3.06354">
        <ele>13.826</ele>
        <time>2010-11-21T09:35:42Z</time>
      </trkpt>
      <trkpt lat="43.23636" lon="3.06346">
        <ele>13.801</ele>
        <time>2010-11-21T09:35:46Z</time>
      </trkpt>
      <trkpt lat="43.2364" lon="3.06321">
        <ele>14.018</ele>
        <time>2010-11-21T09:35:51Z</time>
      </trkpt>
      <trkpt lat="43.23652" lon="3.06199">
        <ele>14.414</ele>
        <time>2010-11-21T09:36:06Z</time>
      </trkpt>
      <trkpt lat="43.23661" lon="3.06119">
        <ele>14.032</ele>
        <time>2010-11-21T09:36:17Z</time>
      </trkpt>
      <trkpt lat="43.23669" lon="3.06055">
        <ele>14.666</ele>
        <time>2010-11-21T09:36:25Z</time>
      </trkpt>
      <trkpt lat="43.23669" lon="3.06025">
        <ele>15.176</ele>
        <time>2010-11-21T09:36:31Z</time>
      </trkpt>
      <trkpt lat="43.2366" lon="3.06011">
        <ele>15.328</ele>
        <time>2010-11-21T09:36:34Z</time>
      </trkpt>
      <trkpt lat="43.2365" lon="3.05996">
        <ele>14.797</ele>
        <time>2010-11-21T09:36:37Z</time>
      </trkpt>
      <trkpt lat="43.23632" lon="3.05958">
        <ele>11.075</ele>
        <time>2010-11-21T09:36:43Z</time>
      </trkpt>
      <trkpt lat="43.2362" lon="3.05946">
        <ele>9.636</ele>
        <time>2010-11-21T09:36:46Z</time>
      </trkpt>
      <trkpt lat="43.23597" lon="3.0593">
        <ele>7.776</ele>
        <time>2010-11-21T09:36:51Z</time>
      </trkpt>
      <trkpt lat="43.23587" lon="3.05925">
        <ele>7.059</ele>
        <time>2010-11-21T09:36:53Z</time>
      </trkpt>
      <trkpt lat="43.23567" lon="3.05886">
        <ele>3.803</ele>
        <time>2010-11-21T09:37:02Z</time>
      </trkpt>
      <trkpt lat="43.23552" lon="3.05851">
        <ele>1.789</ele>
        <time>2010-11-21T09:37:08Z</time>
      </trkpt>
      <trkpt lat="43.23542" lon="3.05835">
        <ele>1.047</ele>
        <time>2010-11-21T09:37:11Z</time>
      </trkpt>
      <trkpt lat="43.23489" lon="3.05797">
        <ele>-3.41</ele>
        <time>2010-11-21T09:37:24Z</time>
      </trkpt>
      <trkpt lat="43.23485" lon="3.0578">
        <ele>-4.724</ele>
        <time>2010-11-21T09:37:27Z</time>
      </trkpt>
      <trkpt lat="43.23481" lon="3.05763">
        <ele>-2.077</ele>
        <time>2010-11-21T09:37:32Z</time>
      </trkpt>
      <trkpt lat="43.23504" lon="3.05743">
        <ele>1.159</ele>
        <time>2010-11-21T09:37:35Z</time>
      </trkpt>
      <trkpt lat="43.23541" lon="3.05729">
        <ele>8.438</ele>
        <time>2010-11-21T09:37:45Z</time>
      </trkpt>
      <trkpt lat="43.236" lon="3.05707">
        <ele>7.822</ele>
        <time>2010-11-21T09:37:57Z</time>
      </trkpt>
      <trkpt lat="43.23634" lon="3.05717">
        <ele>7.681</ele>
        <time>2010-11-21T09:38:02Z</time>
      </trkpt>
      <trkpt lat="43.23649" lon="3.05738">
        <ele>7.649</ele>
        <time>2010-11-21T09:38:06Z</time>
      </trkpt>
      <trkpt lat="43.23656" lon="3.05747">
        <ele>8.083</ele>
        <time>2010-11-21T09:38:10Z</time>
      </trkpt>
      <trkpt lat="43.23669" lon="3.05763">
        <ele>9.619</ele>
        <time>2010-11-21T09:38:15Z</time>
      </trkpt>
      <trkpt lat="43.23693" lon="3.05784">
        <ele>12.757</ele>
        <time>2010-11-21T09:38:21Z</time>
      </trkpt>
      <trkpt lat="43.2368" lon="3.05854">
        <ele>16.183</ele>
        <time>2010-11-21T09:38:25Z</time>
      </trkpt>
      <trkpt lat="43.23689" lon="3.05873">
        <ele>18.336</ele>
        <time>2010-11-21T09:38:28Z</time>
      </trkpt>
      <trkpt lat="43.23717" lon="3.05934">
        <ele>23.614</ele>
        <time>2010-11-21T09:38:37Z</time>
      </trkpt>
      <trkpt lat="43.23736" lon="3.05975">
        <ele>22.622</ele>
        <time>2010-11-21T09:38:43Z</time>
      </trkpt>
      <trkpt lat="43.23801" lon="3.06094">
        <ele>16.051</ele>
        <time>2010-11-21T09:39:01Z</time>
      </trkpt>
      <trkpt lat="43.23863" lon="3.06192">
        <ele>14.251</ele>
        <time>2010-11-21T09:39:17Z</time>
      </trkpt>
      <trkpt lat="43.23918" lon="3.06322">
        <ele>12.811</ele>
        <time>2010-11-21T09:39:36Z</time>
      </trkpt>
      <trkpt lat="43.23941" lon="3.06387">
        <ele>11.788</ele>
        <time>2010-11-21T09:39:45Z</time>
      </trkpt>
      <trkpt lat="43.23947" lon="3.06407">
        <ele>12.603</ele>
        <time>2010-11-21T09:39:48Z</time>
      </trkpt>
      <trkpt lat="43.23955" lon="3.06436">
        <ele>12.803</ele>
        <time>2010-11-21T09:39:52Z</time>
      </trkpt>
      <trkpt lat="43.24019" lon="3.06549">
        <ele>8.899</ele>
        <time>2010-11-21T09:40:08Z</time>
      </trkpt>
      <trkpt lat="43.24078" lon="3.06652">
        <ele>9.4</ele>
        <time>2010-11-21T09:40:24Z</time>
      </trkpt>
      <trkpt lat="43.24133" lon="3.06747">
        <ele>12.282</ele>
        <time>2010-11-21T09:40:40Z</time>
      </trkpt>
      <trkpt lat="43.24197" lon="3.06855">
        <ele>7.594</ele>
        <time>2010-11-21T09:40:59Z</time>
      </trkpt>
      <trkpt lat="43.24277" lon="3.0699">
        <ele>5.995</ele>
        <time>2010-11-21T09:41:23Z</time>
      </trkpt>
      <trkpt lat="43.24306" lon="3.07042">
        <ele>6.762</ele>
        <time>2010-11-21T09:41:32Z</time>
      </trkpt>
      <trkpt lat="43.24311" lon="3.07068">
        <ele>6.312</ele>
        <time>2010-11-21T09:41:36Z</time>
      </trkpt>
      <trkpt lat="43.24309" lon="3.07219">
        <ele>10.4</ele>
        <time>2010-11-21T09:41:57Z</time>
      </trkpt>
      <trkpt lat="43.24312" lon="3.07225">
        <ele>9.766</ele>
        <time>2010-11-21T09:41:58Z</time>
      </trkpt>
      <trkpt lat="43.24321" lon="3.07244">
        <ele>10.381</ele>
        <time>2010-11-21T09:42:02Z</time>
      </trkpt>
      <trkpt lat="43.24338" lon="3.07263">
        <ele>11.57</ele>
        <time>2010-11-21T09:42:07Z</time>
      </trkpt>
      <trkpt lat="43.24367" lon="3.07286">
        <ele>11.886</ele>
        <time>2010-11-21T09:42:15Z</time>
      </trkpt>
      <trkpt lat="43.24407" lon="3.07273">
        <ele>11.494</ele>
        <time>2010-11-21T09:42:24Z</time>
      </trkpt>
      <trkpt lat="43.24498" lon="3.07234">
        <ele>10.544</ele>
        <time>2010-11-21T09:42:43Z</time>
      </trkpt>
      <trkpt lat="43.24509" lon="3.07253">
        <ele>9.691</ele>
        <time>2010-11-21T09:42:48Z</time>
      </trkpt>
      <trkpt lat="43.24525" lon="3.07383">
        <ele>6.634</ele>
        <time>2010-11-21T09:43:03Z</time>
      </trkpt>
      <trkpt lat="43.24536" lon="3.07536">
        <ele>6.652</ele>
        <time>2010-11-21T09:43:24Z</time>
      </trkpt>
      <trkpt lat="43.24524" lon="3.07699">
        <ele>7.888</ele>
        <time>2010-11-21T09:43:47Z</time>
      </trkpt>
      <trkpt lat="43.24501" lon="3.07841">
        <ele>6.3</ele>
        <time>2010-11-21T09:44:07Z</time>
      </trkpt>
      <trkpt lat="43.24476" lon="3.08012">
        <ele>7.481</ele>
        <time>2010-11-21T09:44:31Z</time>
      </trkpt>
      <trkpt lat="43.24479" lon="3.08083">
        <ele>7.996</ele>
        <time>2010-11-21T09:44:41Z</time>
      </trkpt>
      <trkpt lat="43.24482" lon="3.08096">
        <ele>8.221</ele>
        <time>2010-11-21T09:44:43Z</time>
      </trkpt>
      <trkpt lat="43.24494" lon="3.0812">
        <ele>9.142</ele>
        <time>2010-11-21T09:44:47Z</time>
      </trkpt>
      <trkpt lat="43.24589" lon="3.08218">
        <ele>8.528</ele>
        <time>2010-11-21T09:45:10Z</time>
      </trkpt>
      <trkpt lat="43.24703" lon="3.08331">
        <ele>7.045</ele>
        <time>2010-11-21T09:45:38Z</time>
      </trkpt>
      <trkpt lat="43.24825" lon="3.08435">
        <ele>5.849</ele>
        <time>2010-11-21T09:46:07Z</time>
      </trkpt>
      <trkpt lat="43.24929" lon="3.08481">
        <ele>6.494</ele>
        <time>2010-11-21T09:46:30Z</time>
      </trkpt>
      <trkpt lat="43.24963" lon="3.08481">
        <ele>5.855</ele>
        <time>2010-11-21T09:46:37Z</time>
      </trkpt>
      <trkpt lat="43.24966" lon="3.08505">
        <ele>5.874</ele>
        <time>2010-11-21T09:46:43Z</time>
      </trkpt>
      <trkpt lat="43.24901" lon="3.08641">
        <ele>4.581</ele>
        <time>2010-11-21T09:47:05Z</time>
      </trkpt>
      <trkpt lat="43.24829" lon="3.08796">
        <ele>2.616</ele>
        <time>2010-11-21T09:47:30Z</time>
      </trkpt>
      <trkpt lat="43.24776" lon="3.08893">
        <ele>3.67</ele>
        <time>2010-11-21T09:47:47Z</time>
      </trkpt>
      <trkpt lat="43.24721" lon="3.09001">
        <ele>3.753</ele>
        <time>2010-11-21T09:48:05Z</time>
      </trkpt>
      <trkpt lat="43.24708" lon="3.0907">
        <ele>2.837</ele>
        <time>2010-11-21T09:48:15Z</time>
      </trkpt>
      <trkpt lat="43.24723" lon="3.09172">
        <ele>3.29</ele>
        <time>2010-11-21T09:48:30Z</time>
      </trkpt>
      <trkpt lat="43.24734" lon="3.09205">
        <ele>4.29</ele>
        <time>2010-11-21T09:48:36Z</time>
      </trkpt>
      <trkpt lat="43.24734" lon="3.09239">
        <ele>3.697</ele>
        <time>2010-11-21T09:48:41Z</time>
      </trkpt>
      <trkpt lat="43.24707" lon="3.09401">
        <ele>5.625</ele>
        <time>2010-11-21T09:49:04Z</time>
      </trkpt>
      <trkpt lat="43.24704" lon="3.09416">
        <ele>5.404</ele>
        <time>2010-11-21T09:49:06Z</time>
      </trkpt>
      <trkpt lat="43.24685" lon="3.09548">
        <ele>7.46</ele>
        <time>2010-11-21T09:49:25Z</time>
      </trkpt>
      <trkpt lat="43.24661" lon="3.09723">
        <ele>5.694</ele>
        <time>2010-11-21T09:49:50Z</time>
      </trkpt>
      <trkpt lat="43.2466" lon="3.0973">
        <ele>5.945</ele>
        <time>2010-11-21T09:49:51Z</time>
      </trkpt>
      <trkpt lat="43.24657" lon="3.09755">
        <ele>5.151</ele>
        <time>2010-11-21T09:49:55Z</time>
      </trkpt>
      <trkpt lat="43.24633" lon="3.0993">
        <ele>3.792</ele>
        <time>2010-11-21T09:50:20Z</time>
      </trkpt>
      <trkpt lat="43.24629" lon="3.09962">
        <ele>3.643</ele>
        <time>2010-11-21T09:50:25Z</time>
      </trkpt>
      <trkpt lat="43.24623" lon="3.10112">
        <ele>4.868</ele>
        <time>2010-11-21T09:50:48Z</time>
      </trkpt>
      <trkpt lat="43.24635" lon="3.10236">
        <ele>7.232</ele>
        <time>2010-11-21T09:51:08Z</time>
      </trkpt>
      <trkpt lat="43.24642" lon="3.10344">
        <ele>6.948</ele>
        <time>2010-11-21T09:51:25Z</time>
      </trkpt>
      <trkpt lat="43.24671" lon="3.10505">
        <ele>7.609</ele>
        <time>2010-11-21T09:51:51Z</time>
      </trkpt>
      <trkpt lat="43.24691" lon="3.10649">
        <ele>6.701</ele>
        <time>2010-11-21T09:52:14Z</time>
      </trkpt>
      <trkpt lat="43.24717" lon="3.10823">
        <ele>5.674</ele>
        <time>2010-11-21T09:52:41Z</time>
      </trkpt>
      <trkpt lat="43.2474" lon="3.10942">
        <ele>5.453</ele>
        <time>2010-11-21T09:53:00Z</time>
      </trkpt>
      <trkpt lat="43.24758" lon="3.11034">
        <ele>5.722</ele>
        <time>2010-11-21T09:53:15Z</time>
      </trkpt>
      <trkpt lat="43.24784" lon="3.11052">
        <ele>5.532</ele>
        <time>2010-11-21T09:53:22Z</time>
      </trkpt>
      <trkpt lat="43.2486" lon="3.11039">
        <ele>3.038</ele>
        <time>2010-11-21T09:53:38Z</time>
      </trkpt>
      <trkpt lat="43.24872" lon="3.11037">
        <ele>3.142</ele>
        <time>2010-11-21T09:53:41Z</time>
      </trkpt>
      <trkpt lat="43.24874" lon="3.11048">
        <ele>2.758</ele>
        <time>2010-11-21T09:53:46Z</time>
      </trkpt>
      <trkpt lat="43.24808" lon="3.11048">
        <ele>5.642</ele>
        <time>2010-11-21T09:54:03Z</time>
      </trkpt>
      <trkpt lat="43.2473" lon="3.11092">
        <ele>8.554</ele>
        <time>2010-11-21T09:54:21Z</time>
      </trkpt>
      <trkpt lat="43.2467" lon="3.11109">
        <ele>9.316</ele>
        <time>2010-11-21T09:54:33Z</time>
      </trkpt>
      <trkpt lat="43.24626" lon="3.11096">
        <ele>8.643</ele>
        <time>2010-11-21T09:54:40Z</time>
      </trkpt>
      <trkpt lat="43.24588" lon="3.11075">
        <ele>4.573</ele>
        <time>2010-11-21T09:54:46Z</time>
      </trkpt>
      <trkpt lat="43.24575" lon="3.11069">
        <ele>3.526</ele>
        <time>2010-11-21T09:54:48Z</time>
      </trkpt>
      <trkpt lat="43.2449" lon="3.11085">
        <ele>4.586</ele>
        <time>2010-11-21T09:55:01Z</time>
      </trkpt>
      <trkpt lat="43.24411" lon="3.11102">
        <ele>2.824</ele>
        <time>2010-11-21T09:55:14Z</time>
      </trkpt>
      <trkpt lat="43.244" lon="3.11104">
        <ele>3.169</ele>
        <time>2010-11-21T09:55:16Z</time>
      </trkpt>
      <trkpt lat="43.24389" lon="3.11107">
        <ele>3.228</ele>
        <time>2010-11-21T09:55:18Z</time>
      </trkpt>
      <trkpt lat="43.24317" lon="3.11159">
        <ele>9.778</ele>
        <time>2010-11-21T09:55:32Z</time>
      </trkpt>
      <trkpt lat="43.24264" lon="3.11202">
        <ele>12.115</ele>
        <time>2010-11-21T09:55:42Z</time>
      </trkpt>
      <trkpt lat="43.24206" lon="3.11284">
        <ele>11.44</ele>
        <time>2010-11-21T09:55:56Z</time>
      </trkpt>
      <trkpt lat="43.24193" lon="3.11277">
        <ele>12.55</ele>
        <time>2010-11-21T09:56:00Z</time>
      </trkpt>
      <trkpt lat="43.24185" lon="3.11241">
        <ele>13.438</ele>
        <time>2010-11-21T09:56:07Z</time>
      </trkpt>
      <trkpt lat="43.24155" lon="3.11111">
        <ele>8.874</ele>
        <time>2010-11-21T09:56:25Z</time>
      </trkpt>
      <trkpt lat="43.24153" lon="3.11104">
        <ele>9.108</ele>
        <time>2010-11-21T09:56:26Z</time>
      </trkpt>
      <trkpt lat="43.24137" lon="3.11075">
        <ele>8.48</ele>
        <time>2010-11-21T09:56:31Z</time>
      </trkpt>
      <trkpt lat="43.24109" lon="3.11036">
        <ele>7.829</ele>
        <time>2010-11-21T09:56:39Z</time>
      </trkpt>
      <trkpt lat="43.24072" lon="3.10963">
        <ele>13.876</ele>
        <time>2010-11-21T09:56:54Z</time>
      </trkpt>
      <trkpt lat="43.24023" lon="3.10883">
        <ele>10.646</ele>
        <time>2010-11-21T09:57:15Z</time>
      </trkpt>
      <trkpt lat="43.23993" lon="3.10889">
        <ele>11.857</ele>
        <time>2010-11-21T09:57:24Z</time>
      </trkpt>
      <trkpt lat="43.23975" lon="3.10915">
        <ele>11.111</ele>
        <time>2010-11-21T09:57:31Z</time>
      </trkpt>
      <trkpt lat="43.23972" lon="3.1092">
        <ele>10.115</ele>
        <time>2010-11-21T09:57:41Z</time>
      </trkpt>
      <trkpt lat="43.23972" lon="3.1092">
        <ele>10.691</ele>
        <time>2010-11-21T09:59:00Z</time>
      </trkpt>
      <trkpt lat="43.23972" lon="3.1092">
        <ele>13.011</ele>
        <time>2010-11-21T10:10:06Z</time>
      </trkpt>
    </trkseg>
  </trk>
</gpx>